<?xml version="1.0" encoding="UTF-8"?>
<gpx version="1.1" creator="2bulu-scraper" xmlns="http://www.topografix.com/GPX/1/1">
  <metadata><name>井研川山洞小环线</name><desc>source: 2bulu.com trackId=83967358; exported 2026-09-01T16:28:42.924Z</desc>
    <bounds minlat="29.505275" minlon="104.099515" maxlat="29.513621" maxlon="104.109852"/>
    <link href="https://www.2bulu.com/track/t-ZB1ZU4Fh9m%252Fp%252FR2KBg5Tzw%253D%253D.htm"><text>2bulu 源页面</text></link>
  </metadata>
  <wpt lat="29.512561" lon="104.108986"><ele>406</ele><name></name></wpt>
  <wpt lat="29.510697" lon="104.109656"><ele>405</ele><name></name></wpt>
  <wpt lat="29.509881" lon="104.109717"><ele>398</ele><name></name></wpt>
  <wpt lat="29.509132" lon="104.109597"><ele>402</ele><name></name></wpt>
  <wpt lat="29.509201" lon="104.107958"><ele>397</ele><name></name></wpt>
  <wpt lat="29.509477" lon="104.106317"><ele>388</ele><name></name></wpt>
  <wpt lat="29.509629" lon="104.105072"><ele>390</ele><name></name></wpt>
  <wpt lat="29.50934" lon="104.103315"><ele>402</ele><name></name></wpt>
  <wpt lat="29.509117" lon="104.10282"><ele>403</ele><name></name></wpt>
  <wpt lat="29.508009" lon="104.103481"><ele>387</ele><name></name></wpt>
  <wpt lat="29.50697" lon="104.103611"><ele>416</ele><name></name></wpt>
  <wpt lat="29.506841" lon="104.103641"><ele>421</ele><name></name></wpt>
  <wpt lat="29.50659" lon="104.103822"><ele>425</ele><name></name></wpt>
  <wpt lat="29.506359" lon="104.104236"><ele>429</ele><name></name></wpt>
  <wpt lat="29.505875" lon="104.104062"><ele>423</ele><name></name></wpt>
  <wpt lat="29.505715" lon="104.103657"><ele>422</ele><name></name></wpt>
  <wpt lat="29.505767" lon="104.102923"><ele>423</ele><name></name></wpt>
  <wpt lat="29.505938" lon="104.102595"><ele>418</ele><name></name></wpt>
  <wpt lat="29.505858" lon="104.102489"><ele>419</ele><name></name></wpt>
  <wpt lat="29.505472" lon="104.102029"><ele>417</ele><name></name></wpt>
  <wpt lat="29.505377" lon="104.10181"><ele>418</ele><name></name></wpt>
  <wpt lat="29.505348" lon="104.101669"><ele>418</ele><name></name></wpt>
  <wpt lat="29.50545" lon="104.101564"><ele>412</ele><name></name></wpt>
  <wpt lat="29.505477" lon="104.101493"><ele>409</ele><name></name></wpt>
  <wpt lat="29.505349" lon="104.101388"><ele>396</ele><name></name></wpt>
  <wpt lat="29.505447" lon="104.101093"><ele>401</ele><name></name></wpt>
  <wpt lat="29.50555" lon="104.100957"><ele>395</ele><name></name></wpt>
  <wpt lat="29.505546" lon="104.100692"><ele>402</ele><name></name></wpt>
  <wpt lat="29.505506" lon="104.100297"><ele>406</ele><name></name></wpt>
  <wpt lat="29.505335" lon="104.099637"><ele>408</ele><name></name></wpt>
  <wpt lat="29.505494" lon="104.101459"><ele>408</ele><name></name></wpt>
  <wpt lat="29.505988" lon="104.101428"><ele>404</ele><name></name></wpt>
  <wpt lat="29.506254" lon="104.102033"><ele>410</ele><name></name></wpt>
  <wpt lat="29.506766" lon="104.103131"><ele>415</ele><name></name></wpt>
  <wpt lat="29.506925" lon="104.103537"><ele>417</ele><name></name></wpt>
  <wpt lat="29.506893" lon="104.10293"><ele>411</ele><name></name></wpt>
  <wpt lat="29.509485" lon="104.102947"><ele>404</ele><name></name></wpt>
  <wpt lat="29.509698" lon="104.103519"><ele>397</ele><name></name></wpt>
  <wpt lat="29.510129" lon="104.104002"><ele>402</ele><name></name></wpt>
  <wpt lat="29.511513" lon="104.105066"><ele>425</ele><name></name></wpt>
  <wpt lat="29.511703" lon="104.105425"><ele>431</ele><name></name></wpt>
  <wpt lat="29.512231" lon="104.105396"><ele>431</ele><name></name></wpt>
  <wpt lat="29.512704" lon="104.107443"><ele>419</ele><name></name></wpt>
  <trk><name>井研川山洞小环线</name>
      <trkseg>
        <trkpt lat="29.512509" lon="104.108991"><ele>404.77197</ele><time>2026-05-09T18:19:45.000Z</time></trkpt>
        <trkpt lat="29.512461" lon="104.108985"><ele>401.28253</ele><time>2026-05-09T18:19:53.000Z</time></trkpt>
        <trkpt lat="29.512409" lon="104.108989"><ele>399.43146</ele><time>2026-05-09T18:20:00.000Z</time></trkpt>
        <trkpt lat="29.512356" lon="104.10899"><ele>398.76013</ele><time>2026-05-09T18:21:20.000Z</time></trkpt>
        <trkpt lat="29.5123" lon="104.108994"><ele>398.2547</ele><time>2026-05-09T18:21:25.000Z</time></trkpt>
        <trkpt lat="29.512252" lon="104.109024"><ele>398.67685</ele><time>2026-05-09T18:21:30.000Z</time></trkpt>
        <trkpt lat="29.512217" lon="104.109064"><ele>397.9358</ele><time>2026-05-09T18:21:36.000Z</time></trkpt>
        <trkpt lat="29.51219" lon="104.109108"><ele>399.53812</ele><time>2026-05-09T18:21:43.000Z</time></trkpt>
        <trkpt lat="29.512146" lon="104.109133"><ele>400.47287</ele><time>2026-05-09T18:21:48.000Z</time></trkpt>
        <trkpt lat="29.512099" lon="104.109144"><ele>402.5042</ele><time>2026-05-09T18:21:53.000Z</time></trkpt>
        <trkpt lat="29.512059" lon="104.10918"><ele>402.22675</ele><time>2026-05-09T18:22:00.000Z</time></trkpt>
      </trkseg>
      <trkseg>
        <trkpt lat="29.511913" lon="104.109272"><ele>402.0395</ele><time>2026-05-09T18:22:23.000Z</time></trkpt>
        <trkpt lat="29.511882" lon="104.109314"><ele>401.98474</ele><time>2026-05-09T18:22:27.000Z</time></trkpt>
        <trkpt lat="29.511861" lon="104.109363"><ele>401.3028</ele><time>2026-05-09T18:22:30.000Z</time></trkpt>
        <trkpt lat="29.511834" lon="104.109418"><ele>400.8781</ele><time>2026-05-09T18:22:37.000Z</time></trkpt>
        <trkpt lat="29.511799" lon="104.109477"><ele>400.25748</ele><time>2026-05-09T18:22:42.000Z</time></trkpt>
        <trkpt lat="29.511755" lon="104.109502"><ele>400.1853</ele><time>2026-05-09T18:22:49.000Z</time></trkpt>
        <trkpt lat="29.511733" lon="104.109552"><ele>400.30917</ele><time>2026-05-09T18:22:57.000Z</time></trkpt>
        <trkpt lat="29.511695" lon="104.109499"><ele>400.4527</ele><time>2026-05-09T18:23:02.000Z</time></trkpt>
        <trkpt lat="29.511657" lon="104.109462"><ele>399.35327</ele><time>2026-05-09T18:23:06.000Z</time></trkpt>
        <trkpt lat="29.511634" lon="104.109507"><ele>399.6052</ele><time>2026-05-09T18:23:14.000Z</time></trkpt>
        <trkpt lat="29.511587" lon="104.109466"><ele>399.36813</ele><time>2026-05-09T18:23:20.000Z</time></trkpt>
        <trkpt lat="29.511546" lon="104.10949"><ele>399.42316</ele><time>2026-05-09T18:23:25.000Z</time></trkpt>
        <trkpt lat="29.511512" lon="104.109534"><ele>398.73904</ele><time>2026-05-09T18:23:34.000Z</time></trkpt>
        <trkpt lat="29.511465" lon="104.109523"><ele>399.87265</ele><time>2026-05-09T18:23:44.000Z</time></trkpt>
        <trkpt lat="29.511415" lon="104.109544"><ele>401.52637</ele><time>2026-05-09T18:23:51.000Z</time></trkpt>
        <trkpt lat="29.511365" lon="104.109506"><ele>401.81924</ele><time>2026-05-09T18:23:57.000Z</time></trkpt>
        <trkpt lat="29.51132" lon="104.109521"><ele>402.00702</ele><time>2026-05-09T18:24:03.000Z</time></trkpt>
        <trkpt lat="29.511269" lon="104.109507"><ele>401.26566</ele><time>2026-05-09T18:24:10.000Z</time></trkpt>
        <trkpt lat="29.511235" lon="104.10947"><ele>401.3875</ele><time>2026-05-09T18:24:16.000Z</time></trkpt>
        <trkpt lat="29.511206" lon="104.109511"><ele>401.86475</ele><time>2026-05-09T18:24:22.000Z</time></trkpt>
        <trkpt lat="29.511167" lon="104.10954"><ele>403.2442</ele><time>2026-05-09T18:24:29.000Z</time></trkpt>
        <trkpt lat="29.511119" lon="104.109539"><ele>404.98785</ele><time>2026-05-09T18:24:44.000Z</time></trkpt>
        <trkpt lat="29.511116" lon="104.109594"><ele>405.37415</ele><time>2026-05-09T18:24:50.000Z</time></trkpt>
        <trkpt lat="29.511094" lon="104.109645"><ele>405.55823</ele><time>2026-05-09T18:25:05.000Z</time></trkpt>
        <trkpt lat="29.51104" lon="104.109752"><ele>405.98874</ele><time>2026-05-09T18:25:12.000Z</time></trkpt>
        <trkpt lat="29.511013" lon="104.10971"><ele>406.06168</ele><time>2026-05-09T18:25:15.000Z</time></trkpt>
        <trkpt lat="29.510978" lon="104.109747"><ele>405.9653</ele><time>2026-05-09T18:25:20.000Z</time></trkpt>
        <trkpt lat="29.510936" lon="104.10972"><ele>404.32135</ele><time>2026-05-09T18:25:25.000Z</time></trkpt>
        <trkpt lat="29.510888" lon="104.109703"><ele>401.75186</ele><time>2026-05-09T18:25:48.000Z</time></trkpt>
        <trkpt lat="29.510834" lon="104.109696"><ele>403.2181</ele><time>2026-05-09T18:26:15.000Z</time></trkpt>
        <trkpt lat="29.510823" lon="104.109752"><ele>403.88098</ele><time>2026-05-09T18:26:26.000Z</time></trkpt>
        <trkpt lat="29.510789" lon="104.109719"><ele>404.8597</ele><time>2026-05-09T18:26:31.000Z</time></trkpt>
        <trkpt lat="29.510742" lon="104.109691"><ele>407.32455</ele><time>2026-05-09T18:26:41.000Z</time></trkpt>
        <trkpt lat="29.510697" lon="104.109656"><ele>405.23132</ele><time>2026-05-09T18:27:10.000Z</time></trkpt>
        <trkpt lat="29.51065" lon="104.109652"><ele>403.55334</ele><time>2026-05-09T18:27:45.000Z</time></trkpt>
        <trkpt lat="29.510607" lon="104.109669"><ele>404.44308</ele><time>2026-05-09T18:27:51.000Z</time></trkpt>
        <trkpt lat="29.510556" lon="104.109672"><ele>405.8923</ele><time>2026-05-09T18:27:58.000Z</time></trkpt>
        <trkpt lat="29.510514" lon="104.109656"><ele>408.52655</ele><time>2026-05-09T18:28:08.000Z</time></trkpt>
        <trkpt lat="29.510465" lon="104.109681"><ele>409.99164</ele><time>2026-05-09T18:28:20.000Z</time></trkpt>
        <trkpt lat="29.510409" lon="104.109691"><ele>409.96698</ele><time>2026-05-09T18:28:34.000Z</time></trkpt>
        <trkpt lat="29.510352" lon="104.109677"><ele>409.58456</ele><time>2026-05-09T18:28:39.000Z</time></trkpt>
        <trkpt lat="29.510306" lon="104.109658"><ele>406.19608</ele><time>2026-05-09T18:28:59.000Z</time></trkpt>
        <trkpt lat="29.51026" lon="104.109672"><ele>407.3203</ele><time>2026-05-09T18:29:08.000Z</time></trkpt>
        <trkpt lat="29.51021" lon="104.109682"><ele>407.67245</ele><time>2026-05-09T18:29:18.000Z</time></trkpt>
        <trkpt lat="29.510163" lon="104.109673"><ele>406.03006</ele><time>2026-05-09T18:29:39.000Z</time></trkpt>
        <trkpt lat="29.510109" lon="104.109678"><ele>405.61438</ele><time>2026-05-09T18:29:46.000Z</time></trkpt>
        <trkpt lat="29.510086" lon="104.109632"><ele>403.5174</ele><time>2026-05-09T18:30:01.000Z</time></trkpt>
        <trkpt lat="29.510031" lon="104.109614"><ele>403.9561</ele><time>2026-05-09T18:30:16.000Z</time></trkpt>
        <trkpt lat="29.509987" lon="104.109633"><ele>403.13153</ele><time>2026-05-09T18:30:34.000Z</time></trkpt>
        <trkpt lat="29.509947" lon="104.109662"><ele>403.01962</ele><time>2026-05-09T18:30:46.000Z</time></trkpt>
        <trkpt lat="29.509932" lon="104.109715"><ele>399.83746</ele><time>2026-05-09T18:31:24.000Z</time></trkpt>
        <trkpt lat="29.509881" lon="104.109717"><ele>397.7481</ele><time>2026-05-09T18:31:48.000Z</time></trkpt>
        <trkpt lat="29.50988" lon="104.109772"><ele>399.38144</ele><time>2026-05-09T18:32:11.000Z</time></trkpt>
        <trkpt lat="29.509841" lon="104.109805"><ele>399.94525</ele><time>2026-05-09T18:32:20.000Z</time></trkpt>
        <trkpt lat="29.509781" lon="104.109827"><ele>400.72665</ele><time>2026-05-09T18:32:32.000Z</time></trkpt>
        <trkpt lat="29.509732" lon="104.109852"><ele>400.31186</ele><time>2026-05-09T18:32:41.000Z</time></trkpt>
        <trkpt lat="29.509747" lon="104.109797"><ele>399.7409</ele><time>2026-05-09T18:33:19.000Z</time></trkpt>
        <trkpt lat="29.509708" lon="104.109767"><ele>396.98273</ele><time>2026-05-09T18:33:43.000Z</time></trkpt>
        <trkpt lat="29.509662" lon="104.109771"><ele>395.16074</ele><time>2026-05-09T18:34:35.000Z</time></trkpt>
        <trkpt lat="29.509616" lon="104.109761"><ele>393.04752</ele><time>2026-05-09T18:37:04.000Z</time></trkpt>
        <trkpt lat="29.509556" lon="104.10975"><ele>399.3201</ele><time>2026-05-09T18:37:30.000Z</time></trkpt>
        <trkpt lat="29.509513" lon="104.10972"><ele>399.77643</ele><time>2026-05-09T18:37:43.000Z</time></trkpt>
        <trkpt lat="29.509489" lon="104.109772"><ele>400.3506</ele><time>2026-05-09T18:37:56.000Z</time></trkpt>
        <trkpt lat="29.509448" lon="104.109723"><ele>403.64566</ele><time>2026-05-09T18:38:08.000Z</time></trkpt>
        <trkpt lat="29.509402" lon="104.10973"><ele>402.3524</ele><time>2026-05-09T18:38:18.000Z</time></trkpt>
        <trkpt lat="29.509346" lon="104.109709"><ele>401.46045</ele><time>2026-05-09T18:38:25.000Z</time></trkpt>
        <trkpt lat="29.509301" lon="104.109698"><ele>400.874</ele><time>2026-05-09T18:38:31.000Z</time></trkpt>
        <trkpt lat="29.509263" lon="104.10967"><ele>401.76913</ele><time>2026-05-09T18:38:38.000Z</time></trkpt>
        <trkpt lat="29.509229" lon="104.109624"><ele>402.3154</ele><time>2026-05-09T18:38:44.000Z</time></trkpt>
        <trkpt lat="29.509183" lon="104.109612"><ele>402.21844</ele><time>2026-05-09T18:38:50.000Z</time></trkpt>
        <trkpt lat="29.509132" lon="104.109597"><ele>402.42572</ele><time>2026-05-09T18:38:56.000Z</time></trkpt>
        <trkpt lat="29.509081" lon="104.1096"><ele>400.9424</ele><time>2026-05-09T18:39:04.000Z</time></trkpt>
        <trkpt lat="29.509032" lon="104.109592"><ele>399.88116</ele><time>2026-05-09T18:39:11.000Z</time></trkpt>
        <trkpt lat="29.50898" lon="104.109602"><ele>399.9528</ele><time>2026-05-09T18:39:32.000Z</time></trkpt>
        <trkpt lat="29.508955" lon="104.10955"><ele>400.06845</ele><time>2026-05-09T18:39:37.000Z</time></trkpt>
        <trkpt lat="29.508949" lon="104.109491"><ele>401.72415</ele><time>2026-05-09T18:39:47.000Z</time></trkpt>
        <trkpt lat="29.50896" lon="104.10944"><ele>404.64178</ele><time>2026-05-09T18:40:26.000Z</time></trkpt>
        <trkpt lat="29.508952" lon="104.109386"><ele>403.09656</ele><time>2026-05-09T18:40:37.000Z</time></trkpt>
        <trkpt lat="29.508924" lon="104.109344"><ele>402.5282</ele><time>2026-05-09T18:40:42.000Z</time></trkpt>
        <trkpt lat="29.508883" lon="104.109299"><ele>403.28525</ele><time>2026-05-09T18:40:51.000Z</time></trkpt>
        <trkpt lat="29.508868" lon="104.109246"><ele>404.00507</ele><time>2026-05-09T18:40:55.000Z</time></trkpt>
        <trkpt lat="29.50886" lon="104.109189"><ele>403.8084</ele><time>2026-05-09T18:41:00.000Z</time></trkpt>
        <trkpt lat="29.508851" lon="104.109131"><ele>403.10373</ele><time>2026-05-09T18:41:06.000Z</time></trkpt>
        <trkpt lat="29.508869" lon="104.109081"><ele>403.42154</ele><time>2026-05-09T18:41:15.000Z</time></trkpt>
        <trkpt lat="29.508864" lon="104.109025"><ele>400.79855</ele><time>2026-05-09T18:41:25.000Z</time></trkpt>
        <trkpt lat="29.508869" lon="104.108971"><ele>400.87857</ele><time>2026-05-09T18:41:31.000Z</time></trkpt>
        <trkpt lat="29.508899" lon="104.108928"><ele>399.96365</ele><time>2026-05-09T18:41:39.000Z</time></trkpt>
        <trkpt lat="29.508918" lon="104.108874"><ele>399.33603</ele><time>2026-05-09T18:41:49.000Z</time></trkpt>
        <trkpt lat="29.508915" lon="104.108817"><ele>397.04202</ele><time>2026-05-09T18:41:57.000Z</time></trkpt>
        <trkpt lat="29.508939" lon="104.108758"><ele>396.04056</ele><time>2026-05-09T18:42:02.000Z</time></trkpt>
        <trkpt lat="29.508953" lon="104.108709"><ele>395.42072</ele><time>2026-05-09T18:42:08.000Z</time></trkpt>
        <trkpt lat="29.508959" lon="104.108657"><ele>392.92184</ele><time>2026-05-09T18:42:15.000Z</time></trkpt>
        <trkpt lat="29.508981" lon="104.108605"><ele>391.4993</ele><time>2026-05-09T18:42:23.000Z</time></trkpt>
        <trkpt lat="29.508991" lon="104.108555"><ele>392.28247</ele><time>2026-05-09T18:42:27.000Z</time></trkpt>
        <trkpt lat="29.509035" lon="104.108534"><ele>392.41656</ele><time>2026-05-09T18:42:32.000Z</time></trkpt>
        <trkpt lat="29.509051" lon="104.108482"><ele>392.12442</ele><time>2026-05-09T18:42:37.000Z</time></trkpt>
        <trkpt lat="29.509067" lon="104.108433"><ele>393.50415</ele><time>2026-05-09T18:42:42.000Z</time></trkpt>
        <trkpt lat="29.509076" lon="104.108375"><ele>393.67725</ele><time>2026-05-09T18:42:47.000Z</time></trkpt>
        <trkpt lat="29.509085" lon="104.108321"><ele>393.11353</ele><time>2026-05-09T18:42:52.000Z</time></trkpt>
        <trkpt lat="29.5091" lon="104.108263"><ele>392.4094</ele><time>2026-05-09T18:42:59.000Z</time></trkpt>
        <trkpt lat="29.509107" lon="104.108206"><ele>392.1737</ele><time>2026-05-09T18:43:04.000Z</time></trkpt>
        <trkpt lat="29.509133" lon="104.108164"><ele>394.29282</ele><time>2026-05-09T18:43:09.000Z</time></trkpt>
        <trkpt lat="29.509171" lon="104.108131"><ele>395.2308</ele><time>2026-05-09T18:43:14.000Z</time></trkpt>
        <trkpt lat="29.509183" lon="104.108073"><ele>395.96646</ele><time>2026-05-09T18:43:21.000Z</time></trkpt>
        <trkpt lat="29.509188" lon="104.108014"><ele>396.2327</ele><time>2026-05-09T18:43:27.000Z</time></trkpt>
        <trkpt lat="29.509201" lon="104.107958"><ele>396.68036</ele><time>2026-05-09T18:43:32.000Z</time></trkpt>
        <trkpt lat="29.509208" lon="104.107903"><ele>397.3395</ele><time>2026-05-09T18:43:39.000Z</time></trkpt>
        <trkpt lat="29.509237" lon="104.107857"><ele>396.17725</ele><time>2026-05-09T18:43:49.000Z</time></trkpt>
        <trkpt lat="29.509278" lon="104.107834"><ele>395.61462</ele><time>2026-05-09T18:44:01.000Z</time></trkpt>
        <trkpt lat="29.509307" lon="104.10779"><ele>392.5501</ele><time>2026-05-09T18:44:12.000Z</time></trkpt>
        <trkpt lat="29.509315" lon="104.107737"><ele>392.53226</ele><time>2026-05-09T18:44:18.000Z</time></trkpt>
        <trkpt lat="29.509336" lon="104.107687"><ele>393.7594</ele><time>2026-05-09T18:44:28.000Z</time></trkpt>
        <trkpt lat="29.509356" lon="104.107634"><ele>395.49673</ele><time>2026-05-09T18:44:34.000Z</time></trkpt>
        <trkpt lat="29.509331" lon="104.107589"><ele>395.28574</ele><time>2026-05-09T18:44:41.000Z</time></trkpt>
        <trkpt lat="29.509322" lon="104.107538"><ele>396.1126</ele><time>2026-05-09T18:44:49.000Z</time></trkpt>
        <trkpt lat="29.509341" lon="104.107481"><ele>395.79745</ele><time>2026-05-09T18:44:56.000Z</time></trkpt>
        <trkpt lat="29.509351" lon="104.107428"><ele>396.271</ele><time>2026-05-09T18:45:06.000Z</time></trkpt>
        <trkpt lat="29.509308" lon="104.107446"><ele>396.50528</ele><time>2026-05-09T18:45:12.000Z</time></trkpt>
        <trkpt lat="29.509331" lon="104.107389"><ele>395.71667</ele><time>2026-05-09T18:45:25.000Z</time></trkpt>
        <trkpt lat="29.509371" lon="104.107358"><ele>398.17618</ele><time>2026-05-09T18:45:35.000Z</time></trkpt>
        <trkpt lat="29.50934" lon="104.107317"><ele>397.17047</ele><time>2026-05-09T18:45:54.000Z</time></trkpt>
        <trkpt lat="29.509381" lon="104.107284"><ele>395.1997</ele><time>2026-05-09T18:46:02.000Z</time></trkpt>
        <trkpt lat="29.509397" lon="104.107222"><ele>394.41086</ele><time>2026-05-09T18:46:05.000Z</time></trkpt>
        <trkpt lat="29.50935" lon="104.107192"><ele>396.62772</ele><time>2026-05-09T18:46:19.000Z</time></trkpt>
        <trkpt lat="29.509372" lon="104.107147"><ele>399.35837</ele><time>2026-05-09T18:46:23.000Z</time></trkpt>
        <trkpt lat="29.509414" lon="104.107113"><ele>399.40503</ele><time>2026-05-09T18:46:30.000Z</time></trkpt>
        <trkpt lat="29.509459" lon="104.107083"><ele>394.94617</ele><time>2026-05-09T18:46:45.000Z</time></trkpt>
        <trkpt lat="29.509477" lon="104.107022"><ele>393.2143</ele><time>2026-05-09T18:46:54.000Z</time></trkpt>
        <trkpt lat="29.509452" lon="104.106975"><ele>393.371</ele><time>2026-05-09T18:47:04.000Z</time></trkpt>
        <trkpt lat="29.509449" lon="104.106922"><ele>393.6386</ele><time>2026-05-09T18:47:07.000Z</time></trkpt>
        <trkpt lat="29.509431" lon="104.106871"><ele>395.31317</ele><time>2026-05-09T18:47:14.000Z</time></trkpt>
        <trkpt lat="29.509436" lon="104.106814"><ele>394.37436</ele><time>2026-05-09T18:47:20.000Z</time></trkpt>
        <trkpt lat="29.509457" lon="104.106768"><ele>392.07108</ele><time>2026-05-09T18:47:29.000Z</time></trkpt>
        <trkpt lat="29.509493" lon="104.106734"><ele>390.89877</ele><time>2026-05-09T18:47:36.000Z</time></trkpt>
        <trkpt lat="29.50954" lon="104.10669"><ele>390.78842</ele><time>2026-05-09T18:47:44.000Z</time></trkpt>
        <trkpt lat="29.509546" lon="104.106635"><ele>388.58545</ele><time>2026-05-09T18:47:53.000Z</time></trkpt>
        <trkpt lat="29.509557" lon="104.106577"><ele>387.1027</ele><time>2026-05-09T18:48:00.000Z</time></trkpt>
        <trkpt lat="29.509565" lon="104.106518"><ele>387.4717</ele><time>2026-05-09T18:48:07.000Z</time></trkpt>
        <trkpt lat="29.509573" lon="104.106453"><ele>388.574</ele><time>2026-05-09T18:48:15.000Z</time></trkpt>
        <trkpt lat="29.509562" lon="104.106402"><ele>389.20117</ele><time>2026-05-09T18:48:20.000Z</time></trkpt>
        <trkpt lat="29.509547" lon="104.106351"><ele>388.5593</ele><time>2026-05-09T18:48:24.000Z</time></trkpt>
        <trkpt lat="29.509497" lon="104.106366"><ele>388.41833</ele><time>2026-05-09T18:48:28.000Z</time></trkpt>
        <trkpt lat="29.509477" lon="104.106317"><ele>387.63232</ele><time>2026-05-09T18:48:44.000Z</time></trkpt>
        <trkpt lat="29.5095" lon="104.106269"><ele>386.1132</ele><time>2026-05-09T18:51:02.000Z</time></trkpt>
        <trkpt lat="29.509446" lon="104.106256"><ele>385.22833</ele><time>2026-05-09T18:51:15.000Z</time></trkpt>
        <trkpt lat="29.509552" lon="104.106224"><ele>387.1955</ele><time>2026-05-09T18:51:24.000Z</time></trkpt>
        <trkpt lat="29.509602" lon="104.106201"><ele>388.48022</ele><time>2026-05-09T18:51:33.000Z</time></trkpt>
        <trkpt lat="29.509608" lon="104.10616"><ele>389.4257</ele><time>2026-05-09T18:51:44.000Z</time></trkpt>
        <trkpt lat="29.50965" lon="104.106133"><ele>394.3396</ele><time>2026-05-09T18:52:04.000Z</time></trkpt>
        <trkpt lat="29.509649" lon="104.106079"><ele>393.09833</ele><time>2026-05-09T18:52:15.000Z</time></trkpt>
        <trkpt lat="29.509606" lon="104.106062"><ele>393.59793</ele><time>2026-05-09T18:52:21.000Z</time></trkpt>
        <trkpt lat="29.509652" lon="104.10604"><ele>391.53796</ele><time>2026-05-09T18:52:26.000Z</time></trkpt>
        <trkpt lat="29.509642" lon="104.105979"><ele>389.0696</ele><time>2026-05-09T18:52:29.000Z</time></trkpt>
        <trkpt lat="29.509637" lon="104.105927"><ele>388.66458</ele><time>2026-05-09T18:52:35.000Z</time></trkpt>
        <trkpt lat="29.509672" lon="104.105883"><ele>388.8454</ele><time>2026-05-09T18:52:42.000Z</time></trkpt>
        <trkpt lat="29.509667" lon="104.105824"><ele>388.91098</ele><time>2026-05-09T18:52:49.000Z</time></trkpt>
        <trkpt lat="29.509663" lon="104.105761"><ele>388.33008</ele><time>2026-05-09T18:52:55.000Z</time></trkpt>
        <trkpt lat="29.50967" lon="104.105706"><ele>387.09103</ele><time>2026-05-09T18:53:01.000Z</time></trkpt>
        <trkpt lat="29.509666" lon="104.105645"><ele>392.61563</ele><time>2026-05-09T18:53:28.000Z</time></trkpt>
        <trkpt lat="29.50965" lon="104.105582"><ele>393.5441</ele><time>2026-05-09T18:53:35.000Z</time></trkpt>
        <trkpt lat="29.509651" lon="104.105529"><ele>393.57123</ele><time>2026-05-09T18:53:44.000Z</time></trkpt>
        <trkpt lat="29.509648" lon="104.105474"><ele>395.14233</ele><time>2026-05-09T18:53:59.000Z</time></trkpt>
        <trkpt lat="29.509652" lon="104.105403"><ele>394.5784</ele><time>2026-05-09T18:54:15.000Z</time></trkpt>
        <trkpt lat="29.509655" lon="104.105349"><ele>393.26685</ele><time>2026-05-09T18:54:24.000Z</time></trkpt>
        <trkpt lat="29.509624" lon="104.105298"><ele>394.20023</ele><time>2026-05-09T18:54:30.000Z</time></trkpt>
        <trkpt lat="29.509595" lon="104.105258"><ele>394.398</ele><time>2026-05-09T18:54:38.000Z</time></trkpt>
        <trkpt lat="29.509629" lon="104.105223"><ele>393.7603</ele><time>2026-05-09T18:54:49.000Z</time></trkpt>
        <trkpt lat="29.509607" lon="104.105176"><ele>391.07922</ele><time>2026-05-09T18:54:59.000Z</time></trkpt>
        <trkpt lat="29.50963" lon="104.105125"><ele>390.1049</ele><time>2026-05-09T18:55:09.000Z</time></trkpt>
        <trkpt lat="29.509629" lon="104.105072"><ele>389.50323</ele><time>2026-05-09T18:55:14.000Z</time></trkpt>
        <trkpt lat="29.509598" lon="104.105034"><ele>390.08255</ele><time>2026-05-09T18:55:22.000Z</time></trkpt>
        <trkpt lat="29.509572" lon="104.104989"><ele>388.64127</ele><time>2026-05-09T18:55:30.000Z</time></trkpt>
        <trkpt lat="29.509535" lon="104.10495"><ele>387.82956</ele><time>2026-05-09T18:55:39.000Z</time></trkpt>
        <trkpt lat="29.509534" lon="104.104894"><ele>387.32828</ele><time>2026-05-09T18:55:44.000Z</time></trkpt>
        <trkpt lat="29.509515" lon="104.104822"><ele>387.34573</ele><time>2026-05-09T18:55:54.000Z</time></trkpt>
        <trkpt lat="29.509473" lon="104.104792"><ele>388.39993</ele><time>2026-05-09T18:56:03.000Z</time></trkpt>
        <trkpt lat="29.50949" lon="104.104728"><ele>388.71692</ele><time>2026-05-09T18:56:08.000Z</time></trkpt>
        <trkpt lat="29.509483" lon="104.104673"><ele>390.77188</ele><time>2026-05-09T18:56:15.000Z</time></trkpt>
        <trkpt lat="29.509476" lon="104.104616"><ele>391.86346</ele><time>2026-05-09T18:56:23.000Z</time></trkpt>
        <trkpt lat="29.509436" lon="104.104585"><ele>390.98816</ele><time>2026-05-09T18:56:30.000Z</time></trkpt>
        <trkpt lat="29.509438" lon="104.104516"><ele>389.8068</ele><time>2026-05-09T18:56:39.000Z</time></trkpt>
        <trkpt lat="29.509437" lon="104.104452"><ele>389.77078</ele><time>2026-05-09T18:56:43.000Z</time></trkpt>
        <trkpt lat="29.509441" lon="104.104393"><ele>390.61337</ele><time>2026-05-09T18:56:52.000Z</time></trkpt>
        <trkpt lat="29.509419" lon="104.104318"><ele>388.1099</ele><time>2026-05-09T18:57:05.000Z</time></trkpt>
        <trkpt lat="29.50941" lon="104.104256"><ele>392.97998</ele><time>2026-05-09T18:57:12.000Z</time></trkpt>
        <trkpt lat="29.509433" lon="104.104205"><ele>397.24728</ele><time>2026-05-09T18:57:17.000Z</time></trkpt>
        <trkpt lat="29.509444" lon="104.10415"><ele>397.63858</ele><time>2026-05-09T18:57:21.000Z</time></trkpt>
        <trkpt lat="29.509473" lon="104.104106"><ele>399.80988</ele><time>2026-05-09T18:57:28.000Z</time></trkpt>
        <trkpt lat="29.50944" lon="104.104068"><ele>400.65295</ele><time>2026-05-09T18:57:32.000Z</time></trkpt>
        <trkpt lat="29.509393" lon="104.104029"><ele>400.73813</ele><time>2026-05-09T18:57:38.000Z</time></trkpt>
        <trkpt lat="29.509397" lon="104.103975"><ele>400.369</ele><time>2026-05-09T18:57:44.000Z</time></trkpt>
        <trkpt lat="29.50938" lon="104.103925"><ele>400.37524</ele><time>2026-05-09T18:57:50.000Z</time></trkpt>
        <trkpt lat="29.509388" lon="104.103866"><ele>401.59686</ele><time>2026-05-09T18:57:55.000Z</time></trkpt>
        <trkpt lat="29.509409" lon="104.103818"><ele>402.96368</ele><time>2026-05-09T18:57:59.000Z</time></trkpt>
        <trkpt lat="29.509398" lon="104.103758"><ele>403.868</ele><time>2026-05-09T18:58:04.000Z</time></trkpt>
        <trkpt lat="29.509402" lon="104.103706"><ele>402.61047</ele><time>2026-05-09T18:58:14.000Z</time></trkpt>
        <trkpt lat="29.509389" lon="104.103653"><ele>402.86166</ele><time>2026-05-09T18:58:20.000Z</time></trkpt>
        <trkpt lat="29.509375" lon="104.1036"><ele>402.2375</ele><time>2026-05-09T18:58:26.000Z</time></trkpt>
        <trkpt lat="29.509369" lon="104.103547"><ele>402.15594</ele><time>2026-05-09T18:58:33.000Z</time></trkpt>
        <trkpt lat="29.509363" lon="104.103485"><ele>402.2198</ele><time>2026-05-09T18:58:41.000Z</time></trkpt>
        <trkpt lat="29.509366" lon="104.103432"><ele>401.9675</ele><time>2026-05-09T18:58:49.000Z</time></trkpt>
        <trkpt lat="29.509364" lon="104.103361"><ele>401.7349</ele><time>2026-05-09T18:59:02.000Z</time></trkpt>
        <trkpt lat="29.50934" lon="104.103315"><ele>401.54752</ele><time>2026-05-09T18:59:07.000Z</time></trkpt>
        <trkpt lat="29.509354" lon="104.103266"><ele>400.27063</ele><time>2026-05-09T18:59:43.000Z</time></trkpt>
        <trkpt lat="29.50938" lon="104.103215"><ele>400.0432</ele><time>2026-05-09T18:59:59.000Z</time></trkpt>
        <trkpt lat="29.509363" lon="104.103156"><ele>400.82315</ele><time>2026-05-09T19:00:47.000Z</time></trkpt>
        <trkpt lat="29.509339" lon="104.103105"><ele>400.34637</ele><time>2026-05-09T19:00:52.000Z</time></trkpt>
        <trkpt lat="29.509302" lon="104.103072"><ele>400.40152</ele><time>2026-05-09T19:00:59.000Z</time></trkpt>
        <trkpt lat="29.509299" lon="104.103012"><ele>401.33002</ele><time>2026-05-09T19:01:04.000Z</time></trkpt>
        <trkpt lat="29.509272" lon="104.102958"><ele>402.00568</ele><time>2026-05-09T19:01:12.000Z</time></trkpt>
        <trkpt lat="29.509236" lon="104.102923"><ele>402.3639</ele><time>2026-05-09T19:01:18.000Z</time></trkpt>
        <trkpt lat="29.50919" lon="104.102903"><ele>401.93564</ele><time>2026-05-09T19:01:23.000Z</time></trkpt>
        <trkpt lat="29.509154" lon="104.102854"><ele>402.541</ele><time>2026-05-09T19:01:29.000Z</time></trkpt>
        <trkpt lat="29.509117" lon="104.10282"><ele>403.3889</ele><time>2026-05-09T19:01:35.000Z</time></trkpt>
        <trkpt lat="29.509071" lon="104.102807"><ele>403.95563</ele><time>2026-05-09T19:01:50.000Z</time></trkpt>
        <trkpt lat="29.509031" lon="104.102777"><ele>404.87756</ele><time>2026-05-09T19:01:55.000Z</time></trkpt>
        <trkpt lat="29.508983" lon="104.102759"><ele>405.5128</ele><time>2026-05-09T19:02:03.000Z</time></trkpt>
        <trkpt lat="29.508941" lon="104.102736"><ele>405.6189</ele><time>2026-05-09T19:02:07.000Z</time></trkpt>
        <trkpt lat="29.508897" lon="104.102722"><ele>407.5179</ele><time>2026-05-09T19:02:24.000Z</time></trkpt>
        <trkpt lat="29.508844" lon="104.102721"><ele>406.67496</ele><time>2026-05-09T19:02:30.000Z</time></trkpt>
        <trkpt lat="29.5088" lon="104.102701"><ele>407.10196</ele><time>2026-05-09T19:02:34.000Z</time></trkpt>
        <trkpt lat="29.508756" lon="104.102716"><ele>408.00632</ele><time>2026-05-09T19:02:40.000Z</time></trkpt>
        <trkpt lat="29.508718" lon="104.102753"><ele>408.2179</ele><time>2026-05-09T19:02:46.000Z</time></trkpt>
        <trkpt lat="29.508685" lon="104.10279"><ele>409.28168</ele><time>2026-05-09T19:02:52.000Z</time></trkpt>
        <trkpt lat="29.508642" lon="104.102808"><ele>409.045</ele><time>2026-05-09T19:02:58.000Z</time></trkpt>
        <trkpt lat="29.508597" lon="104.102816"><ele>408.7289</ele><time>2026-05-09T19:03:01.000Z</time></trkpt>
        <trkpt lat="29.508545" lon="104.102846"><ele>409.37524</ele><time>2026-05-09T19:03:08.000Z</time></trkpt>
        <trkpt lat="29.508504" lon="104.102873"><ele>409.8154</ele><time>2026-05-09T19:03:47.000Z</time></trkpt>
        <trkpt lat="29.508469" lon="104.102915"><ele>409.58463</ele><time>2026-05-09T19:03:53.000Z</time></trkpt>
        <trkpt lat="29.508439" lon="104.102956"><ele>409.3078</ele><time>2026-05-09T19:03:59.000Z</time></trkpt>
        <trkpt lat="29.508408" lon="104.102993"><ele>409.48706</ele><time>2026-05-09T19:04:04.000Z</time></trkpt>
        <trkpt lat="29.508388" lon="104.103041"><ele>409.74442</ele><time>2026-05-09T19:04:13.000Z</time></trkpt>
        <trkpt lat="29.508352" lon="104.103073"><ele>409.51193</ele><time>2026-05-09T19:04:27.000Z</time></trkpt>
        <trkpt lat="29.508343" lon="104.103132"><ele>410.0015</ele><time>2026-05-09T19:04:31.000Z</time></trkpt>
        <trkpt lat="29.508383" lon="104.103164"><ele>389.93326</ele><time>2026-05-09T19:04:34.000Z</time></trkpt>
        <trkpt lat="29.508335" lon="104.103156"><ele>394.25992</ele><time>2026-05-09T19:04:41.000Z</time></trkpt>
        <trkpt lat="29.508309" lon="104.103201"><ele>393.34497</ele><time>2026-05-09T19:04:48.000Z</time></trkpt>
        <trkpt lat="29.508274" lon="104.103242"><ele>394.1411</ele><time>2026-05-09T19:04:55.000Z</time></trkpt>
        <trkpt lat="29.508252" lon="104.103299"><ele>393.48032</ele><time>2026-05-09T19:05:01.000Z</time></trkpt>
        <trkpt lat="29.508213" lon="104.103336"><ele>393.39328</ele><time>2026-05-09T19:05:06.000Z</time></trkpt>
        <trkpt lat="29.508178" lon="104.103376"><ele>394.5349</ele><time>2026-05-09T19:05:11.000Z</time></trkpt>
        <trkpt lat="29.508137" lon="104.103401"><ele>395.01376</ele><time>2026-05-09T19:05:27.000Z</time></trkpt>
        <trkpt lat="29.508089" lon="104.103384"><ele>395.78854</ele><time>2026-05-09T19:05:35.000Z</time></trkpt>
        <trkpt lat="29.50806" lon="104.103471"><ele>393.3309</ele><time>2026-05-09T19:06:18.000Z</time></trkpt>
        <trkpt lat="29.508009" lon="104.103481"><ele>387.01437</ele><time>2026-05-09T19:06:32.000Z</time></trkpt>
        <trkpt lat="29.507953" lon="104.103482"><ele>388.83688</ele><time>2026-05-09T19:06:38.000Z</time></trkpt>
        <trkpt lat="29.507941" lon="104.103535"><ele>388.27756</ele><time>2026-05-09T19:06:54.000Z</time></trkpt>
        <trkpt lat="29.507907" lon="104.103569"><ele>390.44443</ele><time>2026-05-09T19:07:00.000Z</time></trkpt>
        <trkpt lat="29.507858" lon="104.10357"><ele>387.5363</ele><time>2026-05-09T19:07:09.000Z</time></trkpt>
        <trkpt lat="29.507809" lon="104.103565"><ele>387.44504</ele><time>2026-05-09T19:07:14.000Z</time></trkpt>
        <trkpt lat="29.507765" lon="104.103541"><ele>387.45493</ele><time>2026-05-09T19:07:20.000Z</time></trkpt>
        <trkpt lat="29.507725" lon="104.103573"><ele>385.83334</ele><time>2026-05-09T19:07:26.000Z</time></trkpt>
        <trkpt lat="29.507681" lon="104.103597"><ele>384.90598</ele><time>2026-05-09T19:07:31.000Z</time></trkpt>
        <trkpt lat="29.507631" lon="104.103624"><ele>386.67477</ele><time>2026-05-09T19:07:37.000Z</time></trkpt>
        <trkpt lat="29.507579" lon="104.103626"><ele>389.67947</ele><time>2026-05-09T19:07:42.000Z</time></trkpt>
        <trkpt lat="29.507512" lon="104.103591"><ele>412.48697</ele><time>2026-05-09T19:07:43.000Z</time></trkpt>
        <trkpt lat="29.507554" lon="104.103565"><ele>410.02225</ele><time>2026-05-09T19:07:48.000Z</time></trkpt>
        <trkpt lat="29.507507" lon="104.103553"><ele>408.8959</ele><time>2026-05-09T19:08:04.000Z</time></trkpt>
        <trkpt lat="29.507458" lon="104.103576"><ele>409.32843</ele><time>2026-05-09T19:08:12.000Z</time></trkpt>
        <trkpt lat="29.507418" lon="104.103607"><ele>410.6451</ele><time>2026-05-09T19:08:19.000Z</time></trkpt>
        <trkpt lat="29.507368" lon="104.103624"><ele>410.86746</ele><time>2026-05-09T19:08:44.000Z</time></trkpt>
        <trkpt lat="29.507315" lon="104.103624"><ele>412.13882</ele><time>2026-05-09T19:08:52.000Z</time></trkpt>
        <trkpt lat="29.507257" lon="104.103607"><ele>412.30508</ele><time>2026-05-09T19:09:00.000Z</time></trkpt>
        <trkpt lat="29.507214" lon="104.103589"><ele>411.9236</ele><time>2026-05-09T19:09:06.000Z</time></trkpt>
        <trkpt lat="29.507168" lon="104.103571"><ele>412.01678</ele><time>2026-05-09T19:09:13.000Z</time></trkpt>
        <trkpt lat="29.507115" lon="104.103589"><ele>412.15436</ele><time>2026-05-09T19:09:17.000Z</time></trkpt>
        <trkpt lat="29.507073" lon="104.10361"><ele>413.73578</ele><time>2026-05-09T19:09:21.000Z</time></trkpt>
        <trkpt lat="29.507018" lon="104.103603"><ele>415.92987</ele><time>2026-05-09T19:09:26.000Z</time></trkpt>
        <trkpt lat="29.50697" lon="104.103611"><ele>416.09793</ele><time>2026-05-09T19:09:30.000Z</time></trkpt>
        <trkpt lat="29.506928" lon="104.103575"><ele>417.95877</ele><time>2026-05-09T19:09:36.000Z</time></trkpt>
        <trkpt lat="29.506884" lon="104.103599"><ele>418.02618</ele><time>2026-05-09T19:09:41.000Z</time></trkpt>
        <trkpt lat="29.506838" lon="104.103598"><ele>418.96143</ele><time>2026-05-09T19:10:05.000Z</time></trkpt>
        <trkpt lat="29.50686" lon="104.103551"><ele>417.66827</ele><time>2026-05-09T19:10:34.000Z</time></trkpt>
        <trkpt lat="29.506909" lon="104.103534"><ele>417.4413</ele><time>2026-05-09T19:10:47.000Z</time></trkpt>
        <trkpt lat="29.506947" lon="104.103564"><ele>417.5158</ele><time>2026-05-09T19:11:15.000Z</time></trkpt>
        <trkpt lat="29.506908" lon="104.103603"><ele>417.82935</ele><time>2026-05-09T19:11:38.000Z</time></trkpt>
        <trkpt lat="29.506882" lon="104.103648"><ele>419.75104</ele><time>2026-05-09T19:11:51.000Z</time></trkpt>
        <trkpt lat="29.506859" lon="104.103693"><ele>421.10638</ele><time>2026-05-09T19:12:20.000Z</time></trkpt>
        <trkpt lat="29.506841" lon="104.103641"><ele>421.05984</ele><time>2026-05-09T19:12:41.000Z</time></trkpt>
        <trkpt lat="29.506797" lon="104.103584"><ele>420.74817</ele><time>2026-05-09T19:12:54.000Z</time></trkpt>
        <trkpt lat="29.506754" lon="104.103604"><ele>421.33893</ele><time>2026-05-09T19:13:12.000Z</time></trkpt>
        <trkpt lat="29.506734" lon="104.103654"><ele>422.25137</ele><time>2026-05-09T19:13:20.000Z</time></trkpt>
        <trkpt lat="29.506705" lon="104.103699"><ele>423.4101</ele><time>2026-05-09T19:13:26.000Z</time></trkpt>
        <trkpt lat="29.506736" lon="104.103739"><ele>423.6036</ele><time>2026-05-09T19:13:28.000Z</time></trkpt>
        <trkpt lat="29.50671" lon="104.103692"><ele>423.11392</ele><time>2026-05-09T19:13:51.000Z</time></trkpt>
        <trkpt lat="29.506663" lon="104.103692"><ele>424.30225</ele><time>2026-05-09T19:14:12.000Z</time></trkpt>
        <trkpt lat="29.506626" lon="104.103726"><ele>424.50208</ele><time>2026-05-09T19:14:23.000Z</time></trkpt>
        <trkpt lat="29.506588" lon="104.103759"><ele>424.64938</ele><time>2026-05-09T19:14:59.000Z</time></trkpt>
        <trkpt lat="29.50659" lon="104.103822"><ele>425.3159</ele><time>2026-05-09T19:15:12.000Z</time></trkpt>
        <trkpt lat="29.506555" lon="104.103859"><ele>425.9093</ele><time>2026-05-09T19:15:26.000Z</time></trkpt>
        <trkpt lat="29.506552" lon="104.103914"><ele>426.56213</ele><time>2026-05-09T19:15:34.000Z</time></trkpt>
        <trkpt lat="29.506542" lon="104.103973"><ele>427.02206</ele><time>2026-05-09T19:15:43.000Z</time></trkpt>
        <trkpt lat="29.506524" lon="104.104025"><ele>427.02722</ele><time>2026-05-09T19:15:50.000Z</time></trkpt>
        <trkpt lat="29.506487" lon="104.104061"><ele>427.3709</ele><time>2026-05-09T19:15:56.000Z</time></trkpt>
        <trkpt lat="29.506447" lon="104.104094"><ele>427.32236</ele><time>2026-05-09T19:16:05.000Z</time></trkpt>
        <trkpt lat="29.506413" lon="104.10413"><ele>428.01624</ele><time>2026-05-09T19:16:13.000Z</time></trkpt>
        <trkpt lat="29.506388" lon="104.104174"><ele>429.05496</ele><time>2026-05-09T19:16:29.000Z</time></trkpt>
        <trkpt lat="29.506359" lon="104.104236"><ele>429.36862</ele><time>2026-05-09T19:16:55.000Z</time></trkpt>
        <trkpt lat="29.506316" lon="104.104195"><ele>427.45297</ele><time>2026-05-09T19:17:21.000Z</time></trkpt>
        <trkpt lat="29.506303" lon="104.104142"><ele>427.5302</ele><time>2026-05-09T19:17:30.000Z</time></trkpt>
        <trkpt lat="29.506255" lon="104.104151"><ele>426.66922</ele><time>2026-05-09T19:17:53.000Z</time></trkpt>
        <trkpt lat="29.506219" lon="104.104108"><ele>425.8787</ele><time>2026-05-09T19:18:08.000Z</time></trkpt>
        <trkpt lat="29.506173" lon="104.104094"><ele>424.72842</ele><time>2026-05-09T19:18:33.000Z</time></trkpt>
        <trkpt lat="29.506137" lon="104.10406"><ele>422.2784</ele><time>2026-05-09T19:19:02.000Z</time></trkpt>
        <trkpt lat="29.506096" lon="104.104092"><ele>422.2791</ele><time>2026-05-09T19:19:13.000Z</time></trkpt>
        <trkpt lat="29.506068" lon="104.104141"><ele>421.52603</ele><time>2026-05-09T19:19:20.000Z</time></trkpt>
        <trkpt lat="29.506033" lon="104.104176"><ele>422.24466</ele><time>2026-05-09T19:19:28.000Z</time></trkpt>
        <trkpt lat="29.505979" lon="104.104168"><ele>423.12186</ele><time>2026-05-09T19:19:45.000Z</time></trkpt>
        <trkpt lat="29.505923" lon="104.104164"><ele>423.61627</ele><time>2026-05-09T19:19:53.000Z</time></trkpt>
        <trkpt lat="29.505901" lon="104.104106"><ele>422.82315</ele><time>2026-05-09T19:19:58.000Z</time></trkpt>
        <trkpt lat="29.505875" lon="104.104062"><ele>422.54852</ele><time>2026-05-09T19:20:07.000Z</time></trkpt>
        <trkpt lat="29.50584" lon="104.104027"><ele>420.61707</ele><time>2026-05-09T19:20:16.000Z</time></trkpt>
        <trkpt lat="29.505818" lon="104.103981"><ele>420.38885</ele><time>2026-05-09T19:20:21.000Z</time></trkpt>
        <trkpt lat="29.505782" lon="104.10395"><ele>420.89145</ele><time>2026-05-09T19:20:40.000Z</time></trkpt>
        <trkpt lat="29.50574" lon="104.103924"><ele>421.2792</ele><time>2026-05-09T19:20:57.000Z</time></trkpt>
        <trkpt lat="29.505694" lon="104.103895"><ele>422.6599</ele><time>2026-05-09T19:21:06.000Z</time></trkpt>
        <trkpt lat="29.505667" lon="104.10385"><ele>423.6506</ele><time>2026-05-09T19:21:15.000Z</time></trkpt>
        <trkpt lat="29.505643" lon="104.103802"><ele>424.72733</ele><time>2026-05-09T19:21:23.000Z</time></trkpt>
        <trkpt lat="29.505675" lon="104.103759"><ele>423.53494</ele><time>2026-05-09T19:21:30.000Z</time></trkpt>
        <trkpt lat="29.505689" lon="104.103708"><ele>422.75784</ele><time>2026-05-09T19:21:36.000Z</time></trkpt>
        <trkpt lat="29.505715" lon="104.103657"><ele>422.15262</ele><time>2026-05-09T19:21:41.000Z</time></trkpt>
        <trkpt lat="29.505743" lon="104.103615"><ele>419.33115</ele><time>2026-05-09T19:21:56.000Z</time></trkpt>
        <trkpt lat="29.505775" lon="104.103569"><ele>418.34534</ele><time>2026-05-09T19:22:01.000Z</time></trkpt>
        <trkpt lat="29.505793" lon="104.103512"><ele>417.3257</ele><time>2026-05-09T19:22:06.000Z</time></trkpt>
        <trkpt lat="29.505784" lon="104.103458"><ele>416.75122</ele><time>2026-05-09T19:22:10.000Z</time></trkpt>
        <trkpt lat="29.505756" lon="104.103411"><ele>417.46567</ele><time>2026-05-09T19:23:08.000Z</time></trkpt>
        <trkpt lat="29.505731" lon="104.103361"><ele>418.13348</ele><time>2026-05-09T19:23:25.000Z</time></trkpt>
        <trkpt lat="29.505688" lon="104.103333"><ele>418.57718</ele><time>2026-05-09T19:23:39.000Z</time></trkpt>
        <trkpt lat="29.505646" lon="104.103293"><ele>420.10992</ele><time>2026-05-09T19:23:49.000Z</time></trkpt>
        <trkpt lat="29.505626" lon="104.103246"><ele>421.44867</ele><time>2026-05-09T19:23:55.000Z</time></trkpt>
        <trkpt lat="29.505622" lon="104.103194"><ele>421.82657</ele><time>2026-05-09T19:24:14.000Z</time></trkpt>
        <trkpt lat="29.505654" lon="104.103154"><ele>422.0964</ele><time>2026-05-09T19:24:21.000Z</time></trkpt>
        <trkpt lat="29.505694" lon="104.103125"><ele>421.6028</ele><time>2026-05-09T19:24:28.000Z</time></trkpt>
        <trkpt lat="29.505719" lon="104.103079"><ele>421.7497</ele><time>2026-05-09T19:24:34.000Z</time></trkpt>
        <trkpt lat="29.505738" lon="104.103023"><ele>421.55878</ele><time>2026-05-09T19:24:48.000Z</time></trkpt>
        <trkpt lat="29.50575" lon="104.102972"><ele>422.84567</ele><time>2026-05-09T19:25:12.000Z</time></trkpt>
        <trkpt lat="29.505767" lon="104.102923"><ele>422.6336</ele><time>2026-05-09T19:25:26.000Z</time></trkpt>
        <trkpt lat="29.505766" lon="104.102865"><ele>421.1816</ele><time>2026-05-09T19:25:40.000Z</time></trkpt>
        <trkpt lat="29.505781" lon="104.102816"><ele>420.3482</ele><time>2026-05-09T19:25:50.000Z</time></trkpt>
        <trkpt lat="29.50581" lon="104.10277"><ele>420.2098</ele><time>2026-05-09T19:25:58.000Z</time></trkpt>
        <trkpt lat="29.505824" lon="104.102719"><ele>420.96994</ele><time>2026-05-09T19:26:03.000Z</time></trkpt>
        <trkpt lat="29.505824" lon="104.102658"><ele>420.66818</ele><time>2026-05-09T19:26:08.000Z</time></trkpt>
        <trkpt lat="29.505852" lon="104.102611"><ele>419.69528</ele><time>2026-05-09T19:26:16.000Z</time></trkpt>
        <trkpt lat="29.505893" lon="104.102588"><ele>419.17197</ele><time>2026-05-09T19:26:30.000Z</time></trkpt>
        <trkpt lat="29.505938" lon="104.102595"><ele>418.35022</ele><time>2026-05-09T19:27:00.000Z</time></trkpt>
        <trkpt lat="29.505984" lon="104.102591"><ele>418.7636</ele><time>2026-05-09T19:27:15.000Z</time></trkpt>
        <trkpt lat="29.50603" lon="104.102588"><ele>418.36063</ele><time>2026-05-09T19:27:37.000Z</time></trkpt>
        <trkpt lat="29.506075" lon="104.102583"><ele>417.7068</ele><time>2026-05-09T19:27:50.000Z</time></trkpt>
        <trkpt lat="29.506121" lon="104.102557"><ele>417.25043</ele><time>2026-05-09T19:28:20.000Z</time></trkpt>
        <trkpt lat="29.506086" lon="104.102594"><ele>418.128</ele><time>2026-05-09T19:30:35.000Z</time></trkpt>
        <trkpt lat="29.506041" lon="104.102605"><ele>417.9555</ele><time>2026-05-09T19:30:41.000Z</time></trkpt>
        <trkpt lat="29.505993" lon="104.102618"><ele>418.22998</ele><time>2026-05-09T19:30:48.000Z</time></trkpt>
        <trkpt lat="29.505943" lon="104.102608"><ele>418.01828</ele><time>2026-05-09T19:30:55.000Z</time></trkpt>
        <trkpt lat="29.505897" lon="104.102595"><ele>418.6546</ele><time>2026-05-09T19:31:01.000Z</time></trkpt>
        <trkpt lat="29.505884" lon="104.10254"><ele>418.54916</ele><time>2026-05-09T19:31:24.000Z</time></trkpt>
        <trkpt lat="29.505858" lon="104.102489"><ele>419.4412</ele><time>2026-05-09T19:31:35.000Z</time></trkpt>
        <trkpt lat="29.50584" lon="104.102432"><ele>420.1022</ele><time>2026-05-09T19:31:56.000Z</time></trkpt>
        <trkpt lat="29.505807" lon="104.102394"><ele>418.92108</ele><time>2026-05-09T19:33:09.000Z</time></trkpt>
        <trkpt lat="29.505777" lon="104.102355"><ele>419.76514</ele><time>2026-05-09T19:33:23.000Z</time></trkpt>
        <trkpt lat="29.505746" lon="104.102317"><ele>419.77386</ele><time>2026-05-09T19:33:32.000Z</time></trkpt>
        <trkpt lat="29.505698" lon="104.102292"><ele>420.3343</ele><time>2026-05-09T19:33:47.000Z</time></trkpt>
        <trkpt lat="29.505739" lon="104.102262"><ele>419.64142</ele><time>2026-05-09T19:34:43.000Z</time></trkpt>
        <trkpt lat="29.505694" lon="104.102275"><ele>420.86768</ele><time>2026-05-09T19:35:25.000Z</time></trkpt>
        <trkpt lat="29.505656" lon="104.102235"><ele>420.62253</ele><time>2026-05-09T19:35:36.000Z</time></trkpt>
        <trkpt lat="29.505627" lon="104.102191"><ele>419.09372</ele><time>2026-05-09T19:35:55.000Z</time></trkpt>
        <trkpt lat="29.505632" lon="104.102134"><ele>418.08575</ele><time>2026-05-09T19:36:11.000Z</time></trkpt>
        <trkpt lat="29.505601" lon="104.102094"><ele>417.5144</ele><time>2026-05-09T19:36:26.000Z</time></trkpt>
        <trkpt lat="29.505563" lon="104.10206"><ele>416.51303</ele><time>2026-05-09T19:36:34.000Z</time></trkpt>
        <trkpt lat="29.505519" lon="104.102045"><ele>415.9743</ele><time>2026-05-09T19:36:42.000Z</time></trkpt>
        <trkpt lat="29.505472" lon="104.102029"><ele>416.5491</ele><time>2026-05-09T19:36:52.000Z</time></trkpt>
        <trkpt lat="29.505431" lon="104.102006"><ele>418.62454</ele><time>2026-05-09T19:37:07.000Z</time></trkpt>
        <trkpt lat="29.505398" lon="104.101968"><ele>419.033</ele><time>2026-05-09T19:37:12.000Z</time></trkpt>
        <trkpt lat="29.505396" lon="104.101908"><ele>418.81503</ele><time>2026-05-09T19:37:27.000Z</time></trkpt>
        <trkpt lat="29.505369" lon="104.101861"><ele>419.00232</ele><time>2026-05-09T19:37:49.000Z</time></trkpt>
        <trkpt lat="29.505377" lon="104.10181"><ele>418.0295</ele><time>2026-05-09T19:38:46.000Z</time></trkpt>
        <trkpt lat="29.50533" lon="104.101807"><ele>419.37964</ele><time>2026-05-09T19:39:11.000Z</time></trkpt>
        <trkpt lat="29.50536" lon="104.101769"><ele>417.70374</ele><time>2026-05-09T19:39:28.000Z</time></trkpt>
        <trkpt lat="29.505326" lon="104.101727"><ele>418.51172</ele><time>2026-05-09T19:39:42.000Z</time></trkpt>
        <trkpt lat="29.505299" lon="104.101638"><ele>418.21033</ele><time>2026-05-09T19:40:01.000Z</time></trkpt>
        <trkpt lat="29.505348" lon="104.101669"><ele>417.72687</ele><time>2026-05-09T19:40:10.000Z</time></trkpt>
        <trkpt lat="29.505301" lon="104.101654"><ele>418.0933</ele><time>2026-05-09T19:40:14.000Z</time></trkpt>
        <trkpt lat="29.505281" lon="104.101594"><ele>418.63168</ele><time>2026-05-09T19:40:22.000Z</time></trkpt>
        <trkpt lat="29.505275" lon="104.101543"><ele>418.20636</ele><time>2026-05-09T19:40:29.000Z</time></trkpt>
        <trkpt lat="29.505293" lon="104.101495"><ele>418.51413</ele><time>2026-05-09T19:40:42.000Z</time></trkpt>
        <trkpt lat="29.505333" lon="104.101528"><ele>416.83987</ele><time>2026-05-09T19:41:09.000Z</time></trkpt>
        <trkpt lat="29.505379" lon="104.10154"><ele>415.67667</ele><time>2026-05-09T19:41:23.000Z</time></trkpt>
        <trkpt lat="29.505405" lon="104.101586"><ele>414.32657</ele><time>2026-05-09T19:41:55.000Z</time></trkpt>
        <trkpt lat="29.50545" lon="104.101564"><ele>411.92264</ele><time>2026-05-09T19:42:19.000Z</time></trkpt>
        <trkpt lat="29.50549" lon="104.101533"><ele>409.3176</ele><time>2026-05-09T19:42:33.000Z</time></trkpt>
        <trkpt lat="29.505444" lon="104.101528"><ele>408.4201</ele><time>2026-05-09T19:42:57.000Z</time></trkpt>
        <trkpt lat="29.505477" lon="104.101493"><ele>408.54034</ele><time>2026-05-09T19:43:23.000Z</time></trkpt>
        <trkpt lat="29.50543" lon="104.101493"><ele>405.24268</ele><time>2026-05-09T19:44:04.000Z</time></trkpt>
        <trkpt lat="29.505389" lon="104.101471"><ele>398.07257</ele><time>2026-05-09T19:45:05.000Z</time></trkpt>
        <trkpt lat="29.505351" lon="104.101442"><ele>395.23477</ele><time>2026-05-09T19:45:12.000Z</time></trkpt>
        <trkpt lat="29.505349" lon="104.101388"><ele>395.50388</ele><time>2026-05-09T19:45:20.000Z</time></trkpt>
        <trkpt lat="29.505387" lon="104.101346"><ele>392.24603</ele><time>2026-05-09T19:46:00.000Z</time></trkpt>
        <trkpt lat="29.505338" lon="104.101345"><ele>387.03622</ele><time>2026-05-09T19:47:38.000Z</time></trkpt>
        <trkpt lat="29.505361" lon="104.101395"><ele>389.85693</ele><time>2026-05-09T19:48:15.000Z</time></trkpt>
        <trkpt lat="29.505346" lon="104.101341"><ele>392.6968</ele><time>2026-05-09T19:48:36.000Z</time></trkpt>
        <trkpt lat="29.505359" lon="104.101286"><ele>392.72128</ele><time>2026-05-09T19:48:47.000Z</time></trkpt>
        <trkpt lat="29.505349" lon="104.101233"><ele>392.35605</ele><time>2026-05-09T19:48:57.000Z</time></trkpt>
        <trkpt lat="29.505384" lon="104.10119"><ele>392.32248</ele><time>2026-05-09T19:49:04.000Z</time></trkpt>
        <trkpt lat="29.505428" lon="104.101163"><ele>391.38425</ele><time>2026-05-09T19:49:38.000Z</time></trkpt>
        <trkpt lat="29.505438" lon="104.101107"><ele>392.5531</ele><time>2026-05-09T19:50:14.000Z</time></trkpt>
        <trkpt lat="29.505492" lon="104.101086"><ele>402.81885</ele><time>2026-05-09T19:50:52.000Z</time></trkpt>
        <trkpt lat="29.505447" lon="104.101093"><ele>401.47406</ele><time>2026-05-09T19:51:04.000Z</time></trkpt>
        <trkpt lat="29.505395" lon="104.101089"><ele>397.17932</ele><time>2026-05-09T19:51:21.000Z</time></trkpt>
        <trkpt lat="29.505443" lon="104.101095"><ele>392.5021</ele><time>2026-05-09T19:51:36.000Z</time></trkpt>
        <trkpt lat="29.505422" lon="104.101048"><ele>391.5288</ele><time>2026-05-09T19:51:42.000Z</time></trkpt>
        <trkpt lat="29.505502" lon="104.101005"><ele>390.87625</ele><time>2026-05-09T19:51:53.000Z</time></trkpt>
        <trkpt lat="29.50555" lon="104.100957"><ele>394.99356</ele><time>2026-05-09T19:51:54.000Z</time></trkpt>
        <trkpt lat="29.50551" lon="104.100993"><ele>398.3094</ele><time>2026-05-09T19:51:57.000Z</time></trkpt>
        <trkpt lat="29.505467" lon="104.100972"><ele>397.57245</ele><time>2026-05-09T19:52:01.000Z</time></trkpt>
        <trkpt lat="29.505496" lon="104.100931"><ele>399.61633</ele><time>2026-05-09T19:52:19.000Z</time></trkpt>
        <trkpt lat="29.505525" lon="104.100883"><ele>402.1735</ele><time>2026-05-09T19:52:27.000Z</time></trkpt>
        <trkpt lat="29.505514" lon="104.10083"><ele>404.72235</ele><time>2026-05-09T19:52:50.000Z</time></trkpt>
        <trkpt lat="29.505557" lon="104.100804"><ele>404.47147</ele><time>2026-05-09T19:52:56.000Z</time></trkpt>
        <trkpt lat="29.505558" lon="104.100749"><ele>403.13748</ele><time>2026-05-09T19:53:03.000Z</time></trkpt>
        <trkpt lat="29.505546" lon="104.100692"><ele>401.80362</ele><time>2026-05-09T19:53:10.000Z</time></trkpt>
        <trkpt lat="29.50553" lon="104.100637"><ele>401.41916</ele><time>2026-05-09T19:53:20.000Z</time></trkpt>
        <trkpt lat="29.505495" lon="104.100598"><ele>402.5308</ele><time>2026-05-09T19:53:27.000Z</time></trkpt>
        <trkpt lat="29.505475" lon="104.100541"><ele>403.14377</ele><time>2026-05-09T19:53:34.000Z</time></trkpt>
        <trkpt lat="29.505475" lon="104.100474"><ele>405.14542</ele><time>2026-05-09T19:53:47.000Z</time></trkpt>
        <trkpt lat="29.50549" lon="104.10054"><ele>405.7376</ele><time>2026-05-09T19:54:15.000Z</time></trkpt>
      </trkseg>
      <trkseg>
        <trkpt lat="29.505572" lon="104.100421"><ele>402.5753</ele><time>2026-05-09T20:27:11.000Z</time></trkpt>
        <trkpt lat="29.50554" lon="104.10038"><ele>403.34845</ele><time>2026-05-09T20:27:27.000Z</time></trkpt>
        <trkpt lat="29.505547" lon="104.100323"><ele>404.8896</ele><time>2026-05-09T20:27:56.000Z</time></trkpt>
        <trkpt lat="29.505506" lon="104.100297"><ele>405.71182</ele><time>2026-05-09T20:28:03.000Z</time></trkpt>
        <trkpt lat="29.505462" lon="104.100271"><ele>407.62347</ele><time>2026-05-09T20:28:13.000Z</time></trkpt>
        <trkpt lat="29.505489" lon="104.100224"><ele>408.15002</ele><time>2026-05-09T20:28:19.000Z</time></trkpt>
        <trkpt lat="29.505528" lon="104.100198"><ele>406.95215</ele><time>2026-05-09T20:28:39.000Z</time></trkpt>
        <trkpt lat="29.505547" lon="104.100138"><ele>406.4583</ele><time>2026-05-09T20:28:54.000Z</time></trkpt>
        <trkpt lat="29.505491" lon="104.100115"><ele>406.0587</ele><time>2026-05-09T20:29:01.000Z</time></trkpt>
        <trkpt lat="29.505443" lon="104.100126"><ele>406.39044</ele><time>2026-05-09T20:29:07.000Z</time></trkpt>
        <trkpt lat="29.505462" lon="104.100077"><ele>407.8436</ele><time>2026-05-09T20:29:14.000Z</time></trkpt>
        <trkpt lat="29.505439" lon="104.100031"><ele>408.1837</ele><time>2026-05-09T20:29:25.000Z</time></trkpt>
        <trkpt lat="29.505402" lon="104.099995"><ele>409.5495</ele><time>2026-05-09T20:29:39.000Z</time></trkpt>
        <trkpt lat="29.505431" lon="104.099953"><ele>409.65277</ele><time>2026-05-09T20:29:46.000Z</time></trkpt>
        <trkpt lat="29.505415" lon="104.099902"><ele>409.4123</ele><time>2026-05-09T20:29:56.000Z</time></trkpt>
        <trkpt lat="29.505415" lon="104.09985"><ele>409.60016</ele><time>2026-05-09T20:30:22.000Z</time></trkpt>
        <trkpt lat="29.505417" lon="104.099796"><ele>408.38455</ele><time>2026-05-09T20:30:52.000Z</time></trkpt>
        <trkpt lat="29.505374" lon="104.099776"><ele>407.56616</ele><time>2026-05-09T20:31:35.000Z</time></trkpt>
        <trkpt lat="29.505327" lon="104.099765"><ele>407.79095</ele><time>2026-05-09T20:31:37.000Z</time></trkpt>
        <trkpt lat="29.505372" lon="104.099736"><ele>408.93353</ele><time>2026-05-09T20:31:42.000Z</time></trkpt>
        <trkpt lat="29.50535" lon="104.099687"><ele>409.01205</ele><time>2026-05-09T20:31:52.000Z</time></trkpt>
        <trkpt lat="29.505335" lon="104.099637"><ele>407.501</ele><time>2026-05-09T20:32:17.000Z</time></trkpt>
        <trkpt lat="29.505331" lon="104.09958"><ele>406.97974</ele><time>2026-05-09T20:32:42.000Z</time></trkpt>
        <trkpt lat="29.505329" lon="104.099528"><ele>408.35568</ele><time>2026-05-09T20:33:00.000Z</time></trkpt>
        <trkpt lat="29.505282" lon="104.099515"><ele>408.24854</ele><time>2026-05-09T20:33:09.000Z</time></trkpt>
        <trkpt lat="29.505331" lon="104.099547"><ele>408.85327</ele><time>2026-05-09T20:34:03.000Z</time></trkpt>
        <trkpt lat="29.505356" lon="104.099594"><ele>408.65048</ele><time>2026-05-09T20:34:40.000Z</time></trkpt>
        <trkpt lat="29.505363" lon="104.099653"><ele>408.31918</ele><time>2026-05-09T20:34:49.000Z</time></trkpt>
        <trkpt lat="29.505365" lon="104.099717"><ele>408.7512</ele><time>2026-05-09T20:34:55.000Z</time></trkpt>
        <trkpt lat="29.50532" lon="104.099734"><ele>409.1573</ele><time>2026-05-09T20:35:15.000Z</time></trkpt>
        <trkpt lat="29.50535" lon="104.099779"><ele>409.71396</ele><time>2026-05-09T20:35:29.000Z</time></trkpt>
        <trkpt lat="29.505375" lon="104.099834"><ele>410.22406</ele><time>2026-05-09T20:35:52.000Z</time></trkpt>
        <trkpt lat="29.505392" lon="104.099899"><ele>410.19812</ele><time>2026-05-09T20:35:59.000Z</time></trkpt>
        <trkpt lat="29.505389" lon="104.099951"><ele>410.07642</ele><time>2026-05-09T20:36:11.000Z</time></trkpt>
        <trkpt lat="29.505388" lon="104.100006"><ele>409.8662</ele><time>2026-05-09T20:36:19.000Z</time></trkpt>
        <trkpt lat="29.505411" lon="104.100059"><ele>410.66998</ele><time>2026-05-09T20:36:46.000Z</time></trkpt>
        <trkpt lat="29.505445" lon="104.100096"><ele>410.4188</ele><time>2026-05-09T20:36:56.000Z</time></trkpt>
        <trkpt lat="29.505474" lon="104.100141"><ele>409.60443</ele><time>2026-05-09T20:37:00.000Z</time></trkpt>
        <trkpt lat="29.505445" lon="104.100181"><ele>407.91522</ele><time>2026-05-09T20:37:05.000Z</time></trkpt>
        <trkpt lat="29.50547" lon="104.100228"><ele>408.16754</ele><time>2026-05-09T20:37:11.000Z</time></trkpt>
        <trkpt lat="29.505504" lon="104.100268"><ele>408.4601</ele><time>2026-05-09T20:37:20.000Z</time></trkpt>
        <trkpt lat="29.505467" lon="104.1003"><ele>407.37128</ele><time>2026-05-09T20:37:33.000Z</time></trkpt>
        <trkpt lat="29.505523" lon="104.100332"><ele>407.00458</ele><time>2026-05-09T20:37:41.000Z</time></trkpt>
        <trkpt lat="29.505522" lon="104.10039"><ele>403.6141</ele><time>2026-05-09T20:37:49.000Z</time></trkpt>
        <trkpt lat="29.505537" lon="104.100446"><ele>401.42386</ele><time>2026-05-09T20:37:58.000Z</time></trkpt>
        <trkpt lat="29.505555" lon="104.100498"><ele>401.00525</ele><time>2026-05-09T20:38:11.000Z</time></trkpt>
        <trkpt lat="29.505547" lon="104.100551"><ele>401.1916</ele><time>2026-05-09T20:38:33.000Z</time></trkpt>
        <trkpt lat="29.505578" lon="104.10059"><ele>399.11768</ele><time>2026-05-09T20:38:42.000Z</time></trkpt>
        <trkpt lat="29.505536" lon="104.100612"><ele>401.2488</ele><time>2026-05-09T20:39:17.000Z</time></trkpt>
        <trkpt lat="29.50554" lon="104.100672"><ele>402.79752</ele><time>2026-05-09T20:40:23.000Z</time></trkpt>
        <trkpt lat="29.505556" lon="104.100731"><ele>402.5784</ele><time>2026-05-09T20:40:29.000Z</time></trkpt>
        <trkpt lat="29.505507" lon="104.100753"><ele>403.23312</ele><time>2026-05-09T20:40:42.000Z</time></trkpt>
        <trkpt lat="29.505528" lon="104.100809"><ele>404.2518</ele><time>2026-05-09T20:40:58.000Z</time></trkpt>
        <trkpt lat="29.50552" lon="104.100861"><ele>403.47202</ele><time>2026-05-09T20:41:12.000Z</time></trkpt>
        <trkpt lat="29.505519" lon="104.100933"><ele>403.47836</ele><time>2026-05-09T20:41:27.000Z</time></trkpt>
        <trkpt lat="29.505509" lon="104.100987"><ele>402.50455</ele><time>2026-05-09T20:41:43.000Z</time></trkpt>
        <trkpt lat="29.505473" lon="104.10103"><ele>402.67563</ele><time>2026-05-09T20:41:49.000Z</time></trkpt>
        <trkpt lat="29.505445" lon="104.101077"><ele>403.1109</ele><time>2026-05-09T20:42:01.000Z</time></trkpt>
        <trkpt lat="29.505405" lon="104.101106"><ele>399.30164</ele><time>2026-05-09T20:42:23.000Z</time></trkpt>
        <trkpt lat="29.505402" lon="104.101054"><ele>393.7568</ele><time>2026-05-09T20:42:38.000Z</time></trkpt>
        <trkpt lat="29.50541" lon="104.101112"><ele>394.1855</ele><time>2026-05-09T20:42:46.000Z</time></trkpt>
        <trkpt lat="29.505432" lon="104.101165"><ele>400.77808</ele><time>2026-05-09T20:42:48.000Z</time></trkpt>
        <trkpt lat="29.505426" lon="104.101234"><ele>405.0343</ele><time>2026-05-09T20:42:54.000Z</time></trkpt>
        <trkpt lat="29.50538" lon="104.10123"><ele>406.4512</ele><time>2026-05-09T20:43:04.000Z</time></trkpt>
        <trkpt lat="29.50541" lon="104.101273"><ele>408.8927</ele><time>2026-05-09T20:43:23.000Z</time></trkpt>
        <trkpt lat="29.505402" lon="104.101331"><ele>409.29425</ele><time>2026-05-09T20:43:38.000Z</time></trkpt>
        <trkpt lat="29.505428" lon="104.101378"><ele>408.47028</ele><time>2026-05-09T20:43:49.000Z</time></trkpt>
        <trkpt lat="29.505468" lon="104.101414"><ele>407.63086</ele><time>2026-05-09T20:43:57.000Z</time></trkpt>
        <trkpt lat="29.505494" lon="104.101459"><ele>407.78207</ele><time>2026-05-09T20:44:11.000Z</time></trkpt>
        <trkpt lat="29.505537" lon="104.101477"><ele>405.94724</ele><time>2026-05-09T20:44:26.000Z</time></trkpt>
        <trkpt lat="29.505567" lon="104.101522"><ele>404.80002</ele><time>2026-05-09T20:44:35.000Z</time></trkpt>
        <trkpt lat="29.505606" lon="104.101563"><ele>404.7322</ele><time>2026-05-09T20:44:52.000Z</time></trkpt>
        <trkpt lat="29.505593" lon="104.101505"><ele>405.45633</ele><time>2026-05-09T20:45:15.000Z</time></trkpt>
        <trkpt lat="29.505589" lon="104.101451"><ele>403.98383</ele><time>2026-05-09T20:45:27.000Z</time></trkpt>
        <trkpt lat="29.505606" lon="104.101401"><ele>403.48315</ele><time>2026-05-09T20:45:36.000Z</time></trkpt>
        <trkpt lat="29.505621" lon="104.101336"><ele>403.5502</ele><time>2026-05-09T20:45:41.000Z</time></trkpt>
        <trkpt lat="29.505668" lon="104.101324"><ele>402.3253</ele><time>2026-05-09T20:45:47.000Z</time></trkpt>
        <trkpt lat="29.50571" lon="104.101298"><ele>401.6892</ele><time>2026-05-09T20:45:53.000Z</time></trkpt>
        <trkpt lat="29.505764" lon="104.101295"><ele>402.28754</ele><time>2026-05-09T20:45:57.000Z</time></trkpt>
        <trkpt lat="29.505814" lon="104.101262"><ele>402.9116</ele><time>2026-05-09T20:46:04.000Z</time></trkpt>
        <trkpt lat="29.505862" lon="104.10125"><ele>402.9455</ele><time>2026-05-09T20:46:12.000Z</time></trkpt>
        <trkpt lat="29.505901" lon="104.101295"><ele>402.88528</ele><time>2026-05-09T20:46:18.000Z</time></trkpt>
        <trkpt lat="29.505936" lon="104.101336"><ele>403.26538</ele><time>2026-05-09T20:46:24.000Z</time></trkpt>
        <trkpt lat="29.505967" lon="104.10138"><ele>403.62308</ele><time>2026-05-09T20:46:30.000Z</time></trkpt>
        <trkpt lat="29.505988" lon="104.101428"><ele>403.68073</ele><time>2026-05-09T20:46:35.000Z</time></trkpt>
        <trkpt lat="29.506017" lon="104.101469"><ele>404.05682</ele><time>2026-05-09T20:46:45.000Z</time></trkpt>
        <trkpt lat="29.505976" lon="104.101504"><ele>404.2576</ele><time>2026-05-09T20:46:56.000Z</time></trkpt>
        <trkpt lat="29.505986" lon="104.101557"><ele>404.47556</ele><time>2026-05-09T20:47:08.000Z</time></trkpt>
        <trkpt lat="29.506022" lon="104.10159"><ele>403.8992</ele><time>2026-05-09T20:47:21.000Z</time></trkpt>
        <trkpt lat="29.506017" lon="104.101648"><ele>404.4562</ele><time>2026-05-09T20:47:31.000Z</time></trkpt>
        <trkpt lat="29.506005" lon="104.101715"><ele>404.69043</ele><time>2026-05-09T20:47:41.000Z</time></trkpt>
        <trkpt lat="29.506056" lon="104.10173"><ele>404.66498</ele><time>2026-05-09T20:47:51.000Z</time></trkpt>
        <trkpt lat="29.506066" lon="104.101784"><ele>405.32318</ele><time>2026-05-09T20:47:55.000Z</time></trkpt>
        <trkpt lat="29.506106" lon="104.101816"><ele>405.2669</ele><time>2026-05-09T20:48:01.000Z</time></trkpt>
        <trkpt lat="29.506139" lon="104.101852"><ele>406.0109</ele><time>2026-05-09T20:48:05.000Z</time></trkpt>
        <trkpt lat="29.506178" lon="104.101893"><ele>406.03146</ele><time>2026-05-09T20:48:11.000Z</time></trkpt>
        <trkpt lat="29.506214" lon="104.101936"><ele>406.98572</ele><time>2026-05-09T20:48:18.000Z</time></trkpt>
        <trkpt lat="29.50622" lon="104.10199"><ele>408.26593</ele><time>2026-05-09T20:48:26.000Z</time></trkpt>
        <trkpt lat="29.506254" lon="104.102033"><ele>409.68298</ele><time>2026-05-09T20:48:43.000Z</time></trkpt>
        <trkpt lat="29.506251" lon="104.102086"><ele>408.50363</ele><time>2026-05-09T20:48:56.000Z</time></trkpt>
        <trkpt lat="29.506286" lon="104.102121"><ele>409.59277</ele><time>2026-05-09T20:49:24.000Z</time></trkpt>
        <trkpt lat="29.506315" lon="104.102167"><ele>409.6336</ele><time>2026-05-09T20:49:37.000Z</time></trkpt>
        <trkpt lat="29.506381" lon="104.10219"><ele>409.98398</ele><time>2026-05-09T20:49:53.000Z</time></trkpt>
        <trkpt lat="29.506346" lon="104.102236"><ele>410.5092</ele><time>2026-05-09T20:50:02.000Z</time></trkpt>
        <trkpt lat="29.506388" lon="104.102258"><ele>410.73892</ele><time>2026-05-09T20:50:07.000Z</time></trkpt>
        <trkpt lat="29.506397" lon="104.102316"><ele>410.03143</ele><time>2026-05-09T20:50:16.000Z</time></trkpt>
        <trkpt lat="29.506434" lon="104.102351"><ele>410.33557</ele><time>2026-05-09T20:50:29.000Z</time></trkpt>
        <trkpt lat="29.506445" lon="104.10242"><ele>410.33554</ele><time>2026-05-09T20:50:51.000Z</time></trkpt>
        <trkpt lat="29.506481" lon="104.10246"><ele>411.51962</ele><time>2026-05-09T20:51:12.000Z</time></trkpt>
        <trkpt lat="29.506503" lon="104.102506"><ele>410.56793</ele><time>2026-05-09T20:51:22.000Z</time></trkpt>
        <trkpt lat="29.506532" lon="104.102552"><ele>410.47333</ele><time>2026-05-09T20:51:32.000Z</time></trkpt>
        <trkpt lat="29.506547" lon="104.102606"><ele>410.7855</ele><time>2026-05-09T20:51:57.000Z</time></trkpt>
        <trkpt lat="29.506568" lon="104.102656"><ele>411.73846</ele><time>2026-05-09T20:52:04.000Z</time></trkpt>
        <trkpt lat="29.506587" lon="104.102716"><ele>412.2965</ele><time>2026-05-09T20:52:12.000Z</time></trkpt>
        <trkpt lat="29.506612" lon="104.102764"><ele>412.04517</ele><time>2026-05-09T20:52:21.000Z</time></trkpt>
        <trkpt lat="29.506663" lon="104.10277"><ele>411.42838</ele><time>2026-05-09T20:52:36.000Z</time></trkpt>
        <trkpt lat="29.506664" lon="104.102828"><ele>412.27042</ele><time>2026-05-09T20:52:43.000Z</time></trkpt>
        <trkpt lat="29.506662" lon="104.102891"><ele>413.28146</ele><time>2026-05-09T20:52:49.000Z</time></trkpt>
        <trkpt lat="29.506702" lon="104.10293"><ele>413.25143</ele><time>2026-05-09T20:52:58.000Z</time></trkpt>
        <trkpt lat="29.506739" lon="104.102964"><ele>412.88553</ele><time>2026-05-09T20:53:06.000Z</time></trkpt>
        <trkpt lat="29.506745" lon="104.10302"><ele>413.03024</ele><time>2026-05-09T20:53:12.000Z</time></trkpt>
        <trkpt lat="29.506781" lon="104.103058"><ele>413.5125</ele><time>2026-05-09T20:53:15.000Z</time></trkpt>
        <trkpt lat="29.506723" lon="104.103092"><ele>414.27863</ele><time>2026-05-09T20:53:18.000Z</time></trkpt>
        <trkpt lat="29.506766" lon="104.103131"><ele>414.85052</ele><time>2026-05-09T20:53:23.000Z</time></trkpt>
        <trkpt lat="29.506803" lon="104.103169"><ele>413.7056</ele><time>2026-05-09T20:53:49.000Z</time></trkpt>
        <trkpt lat="29.506833" lon="104.103209"><ele>414.40225</ele><time>2026-05-09T20:53:54.000Z</time></trkpt>
        <trkpt lat="29.506833" lon="104.103268"><ele>414.33853</ele><time>2026-05-09T20:53:59.000Z</time></trkpt>
        <trkpt lat="29.506849" lon="104.103328"><ele>414.66183</ele><time>2026-05-09T20:54:03.000Z</time></trkpt>
        <trkpt lat="29.506889" lon="104.103361"><ele>414.4592</ele><time>2026-05-09T20:54:10.000Z</time></trkpt>
        <trkpt lat="29.506935" lon="104.103384"><ele>413.90982</ele><time>2026-05-09T20:54:16.000Z</time></trkpt>
        <trkpt lat="29.506939" lon="104.103444"><ele>414.5561</ele><time>2026-05-09T20:54:22.000Z</time></trkpt>
        <trkpt lat="29.50694" lon="104.103507"><ele>415.54883</ele><time>2026-05-09T20:54:26.000Z</time></trkpt>
        <trkpt lat="29.50691" lon="104.103547"><ele>416.8222</ele><time>2026-05-09T20:54:32.000Z</time></trkpt>
        <trkpt lat="29.506961" lon="104.103553"><ele>417.34436</ele><time>2026-05-09T20:54:41.000Z</time></trkpt>
        <trkpt lat="29.50697" lon="104.103501"><ele>416.56607</ele><time>2026-05-09T20:55:32.000Z</time></trkpt>
        <trkpt lat="29.506925" lon="104.103537"><ele>416.6494</ele><time>2026-05-09T20:55:57.000Z</time></trkpt>
        <trkpt lat="29.506954" lon="104.103491"><ele>416.62552</ele><time>2026-05-09T20:59:13.000Z</time></trkpt>
        <trkpt lat="29.50698" lon="104.103446"><ele>414.5686</ele><time>2026-05-09T20:59:35.000Z</time></trkpt>
        <trkpt lat="29.506974" lon="104.103394"><ele>414.2086</ele><time>2026-05-09T20:59:41.000Z</time></trkpt>
        <trkpt lat="29.507006" lon="104.103355"><ele>412.2079</ele><time>2026-05-09T20:59:56.000Z</time></trkpt>
        <trkpt lat="29.506998" lon="104.103301"><ele>411.41507</ele><time>2026-05-09T21:00:05.000Z</time></trkpt>
        <trkpt lat="29.507021" lon="104.103252"><ele>410.73215</ele><time>2026-05-09T21:00:36.000Z</time></trkpt>
        <trkpt lat="29.507022" lon="104.103162"><ele>409.60568</ele><time>2026-05-09T21:00:54.000Z</time></trkpt>
        <trkpt lat="29.507004" lon="104.103104"><ele>409.8574</ele><time>2026-05-09T21:01:00.000Z</time></trkpt>
        <trkpt lat="29.50699" lon="104.103049"><ele>410.09537</ele><time>2026-05-09T21:01:07.000Z</time></trkpt>
        <trkpt lat="29.50692" lon="104.103043"><ele>410.33856</ele><time>2026-05-09T21:01:13.000Z</time></trkpt>
        <trkpt lat="29.506892" lon="104.102992"><ele>411.21194</ele><time>2026-05-09T21:01:20.000Z</time></trkpt>
        <trkpt lat="29.506893" lon="104.10293"><ele>410.98312</ele><time>2026-05-09T21:01:24.000Z</time></trkpt>
        <trkpt lat="29.506879" lon="104.102879"><ele>411.01007</ele><time>2026-05-09T21:01:31.000Z</time></trkpt>
        <trkpt lat="29.506888" lon="104.102821"><ele>410.9113</ele><time>2026-05-09T21:01:41.000Z</time></trkpt>
        <trkpt lat="29.506939" lon="104.102803"><ele>410.4619</ele><time>2026-05-09T21:01:47.000Z</time></trkpt>
        <trkpt lat="29.507" lon="104.102814"><ele>409.93942</ele><time>2026-05-09T21:01:52.000Z</time></trkpt>
        <trkpt lat="29.507053" lon="104.102801"><ele>407.6011</ele><time>2026-05-09T21:02:05.000Z</time></trkpt>
        <trkpt lat="29.507099" lon="104.102833"><ele>408.67297</ele><time>2026-05-09T21:02:19.000Z</time></trkpt>
        <trkpt lat="29.507138" lon="104.102884"><ele>407.2667</ele><time>2026-05-09T21:02:42.000Z</time></trkpt>
        <trkpt lat="29.50715" lon="104.102936"><ele>407.03683</ele><time>2026-05-09T21:02:58.000Z</time></trkpt>
        <trkpt lat="29.507193" lon="104.10296"><ele>406.65912</ele><time>2026-05-09T21:03:08.000Z</time></trkpt>
        <trkpt lat="29.507232" lon="104.102988"><ele>407.03815</ele><time>2026-05-09T21:03:20.000Z</time></trkpt>
        <trkpt lat="29.507282" lon="104.102979"><ele>406.6454</ele><time>2026-05-09T21:03:27.000Z</time></trkpt>
        <trkpt lat="29.507321" lon="104.103013"><ele>406.41968</ele><time>2026-05-09T21:03:34.000Z</time></trkpt>
        <trkpt lat="29.507355" lon="104.103049"><ele>405.00113</ele><time>2026-05-09T21:03:47.000Z</time></trkpt>
        <trkpt lat="29.5074" lon="104.103071"><ele>404.7694</ele><time>2026-05-09T21:03:59.000Z</time></trkpt>
        <trkpt lat="29.507437" lon="104.103105"><ele>404.3278</ele><time>2026-05-09T21:04:12.000Z</time></trkpt>
        <trkpt lat="29.507477" lon="104.103134"><ele>404.25833</ele><time>2026-05-09T21:04:19.000Z</time></trkpt>
        <trkpt lat="29.507519" lon="104.103163"><ele>403.69797</ele><time>2026-05-09T21:04:30.000Z</time></trkpt>
        <trkpt lat="29.507564" lon="104.103189"><ele>404.55273</ele><time>2026-05-09T21:04:37.000Z</time></trkpt>
        <trkpt lat="29.507606" lon="104.103205"><ele>404.8755</ele><time>2026-05-09T21:04:59.000Z</time></trkpt>
      </trkseg>
      <trkseg>
        <trkpt lat="29.508974" lon="104.102479"><ele>411.7305</ele><time>2026-05-09T21:09:47.000Z</time></trkpt>
        <trkpt lat="29.509035" lon="104.102465"><ele>411.07977</ele><time>2026-05-09T21:09:58.000Z</time></trkpt>
        <trkpt lat="29.509086" lon="104.102498"><ele>411.06973</ele><time>2026-05-09T21:10:03.000Z</time></trkpt>
        <trkpt lat="29.50912" lon="104.102539"><ele>410.69623</ele><time>2026-05-09T21:10:06.000Z</time></trkpt>
        <trkpt lat="29.509153" lon="104.102575"><ele>410.05615</ele><time>2026-05-09T21:10:13.000Z</time></trkpt>
        <trkpt lat="29.509208" lon="104.1026"><ele>409.7791</ele><time>2026-05-09T21:10:18.000Z</time></trkpt>
        <trkpt lat="29.509249" lon="104.102646"><ele>409.22067</ele><time>2026-05-09T21:10:22.000Z</time></trkpt>
        <trkpt lat="29.509269" lon="104.102703"><ele>408.83713</ele><time>2026-05-09T21:10:27.000Z</time></trkpt>
        <trkpt lat="29.509309" lon="104.102736"><ele>407.7673</ele><time>2026-05-09T21:10:30.000Z</time></trkpt>
        <trkpt lat="29.509336" lon="104.102788"><ele>407.29877</ele><time>2026-05-09T21:10:32.000Z</time></trkpt>
        <trkpt lat="29.509347" lon="104.102852"><ele>406.38855</ele><time>2026-05-09T21:10:35.000Z</time></trkpt>
        <trkpt lat="29.509362" lon="104.102908"><ele>404.3055</ele><time>2026-05-09T21:10:41.000Z</time></trkpt>
        <trkpt lat="29.509365" lon="104.102961"><ele>404.49182</ele><time>2026-05-09T21:10:45.000Z</time></trkpt>
        <trkpt lat="29.509428" lon="104.102937"><ele>403.4397</ele><time>2026-05-09T21:10:52.000Z</time></trkpt>
        <trkpt lat="29.509485" lon="104.102947"><ele>404.03146</ele><time>2026-05-09T21:10:59.000Z</time></trkpt>
        <trkpt lat="29.50952" lon="104.102983"><ele>403.49634</ele><time>2026-05-09T21:11:13.000Z</time></trkpt>
        <trkpt lat="29.509525" lon="104.103038"><ele>403.03406</ele><time>2026-05-09T21:11:18.000Z</time></trkpt>
        <trkpt lat="29.509505" lon="104.103094"><ele>402.89456</ele><time>2026-05-09T21:11:23.000Z</time></trkpt>
        <trkpt lat="29.509525" lon="104.103151"><ele>401.74222</ele><time>2026-05-09T21:11:31.000Z</time></trkpt>
        <trkpt lat="29.509549" lon="104.103198"><ele>401.58533</ele><time>2026-05-09T21:11:35.000Z</time></trkpt>
        <trkpt lat="29.509565" lon="104.103253"><ele>400.88812</ele><time>2026-05-09T21:11:40.000Z</time></trkpt>
        <trkpt lat="29.509576" lon="104.103304"><ele>400.04813</ele><time>2026-05-09T21:11:46.000Z</time></trkpt>
        <trkpt lat="29.509591" lon="104.103358"><ele>400.05698</ele><time>2026-05-09T21:12:42.000Z</time></trkpt>
        <trkpt lat="29.509601" lon="104.103417"><ele>399.60654</ele><time>2026-05-09T21:12:52.000Z</time></trkpt>
        <trkpt lat="29.509614" lon="104.103477"><ele>399.3193</ele><time>2026-05-09T21:12:59.000Z</time></trkpt>
        <trkpt lat="29.509659" lon="104.103487"><ele>397.88004</ele><time>2026-05-09T21:13:14.000Z</time></trkpt>
        <trkpt lat="29.509698" lon="104.103519"><ele>397.04654</ele><time>2026-05-09T21:13:27.000Z</time></trkpt>
        <trkpt lat="29.509707" lon="104.103576"><ele>395.01706</ele><time>2026-05-09T21:13:43.000Z</time></trkpt>
        <trkpt lat="29.509653" lon="104.103577"><ele>395.73132</ele><time>2026-05-09T21:13:55.000Z</time></trkpt>
        <trkpt lat="29.50967" lon="104.103628"><ele>395.9448</ele><time>2026-05-09T21:14:27.000Z</time></trkpt>
        <trkpt lat="29.50965" lon="104.103676"><ele>396.68927</ele><time>2026-05-09T21:14:44.000Z</time></trkpt>
        <trkpt lat="29.50967" lon="104.10373"><ele>396.80554</ele><time>2026-05-09T21:14:52.000Z</time></trkpt>
        <trkpt lat="29.509697" lon="104.103776"><ele>396.1059</ele><time>2026-05-09T21:14:59.000Z</time></trkpt>
        <trkpt lat="29.50974" lon="104.103801"><ele>394.3995</ele><time>2026-05-09T21:15:34.000Z</time></trkpt>
        <trkpt lat="29.509763" lon="104.103849"><ele>394.89737</ele><time>2026-05-09T21:17:01.000Z</time></trkpt>
        <trkpt lat="29.509782" lon="104.103897"><ele>395.33026</ele><time>2026-05-09T21:17:53.000Z</time></trkpt>
        <trkpt lat="29.509793" lon="104.103949"><ele>395.54074</ele><time>2026-05-09T21:18:10.000Z</time></trkpt>
        <trkpt lat="29.509821" lon="104.10399"><ele>397.29324</ele><time>2026-05-09T21:18:23.000Z</time></trkpt>
        <trkpt lat="29.509842" lon="104.104045"><ele>397.9593</ele><time>2026-05-09T21:18:33.000Z</time></trkpt>
        <trkpt lat="29.509894" lon="104.104045"><ele>399.0876</ele><time>2026-05-09T21:18:39.000Z</time></trkpt>
        <trkpt lat="29.509942" lon="104.104043"><ele>400.13358</ele><time>2026-05-09T21:18:47.000Z</time></trkpt>
        <trkpt lat="29.50999" lon="104.104035"><ele>401.01196</ele><time>2026-05-09T21:18:53.000Z</time></trkpt>
        <trkpt lat="29.510034" lon="104.104018"><ele>401.56866</ele><time>2026-05-09T21:18:57.000Z</time></trkpt>
        <trkpt lat="29.510077" lon="104.103996"><ele>402.1605</ele><time>2026-05-09T21:19:07.000Z</time></trkpt>
        <trkpt lat="29.510129" lon="104.104002"><ele>401.83963</ele><time>2026-05-09T21:19:15.000Z</time></trkpt>
        <trkpt lat="29.510176" lon="104.104001"><ele>402.52948</ele><time>2026-05-09T21:19:22.000Z</time></trkpt>
        <trkpt lat="29.510218" lon="104.104027"><ele>404.14798</ele><time>2026-05-09T21:19:33.000Z</time></trkpt>
        <trkpt lat="29.510259" lon="104.104056"><ele>404.88223</ele><time>2026-05-09T21:19:48.000Z</time></trkpt>
        <trkpt lat="29.510302" lon="104.104025"><ele>405.0687</ele><time>2026-05-09T21:19:56.000Z</time></trkpt>
        <trkpt lat="29.510338" lon="104.103991"><ele>406.27298</ele><time>2026-05-09T21:20:55.000Z</time></trkpt>
        <trkpt lat="29.510381" lon="104.103967"><ele>406.9774</ele><time>2026-05-09T21:21:12.000Z</time></trkpt>
        <trkpt lat="29.510426" lon="104.103967"><ele>407.8483</ele><time>2026-05-09T21:21:19.000Z</time></trkpt>
        <trkpt lat="29.510415" lon="104.103905"><ele>407.9188</ele><time>2026-05-09T21:21:21.000Z</time></trkpt>
        <trkpt lat="29.510441" lon="104.103954"><ele>407.76465</ele><time>2026-05-09T21:21:24.000Z</time></trkpt>
        <trkpt lat="29.510495" lon="104.10395"><ele>408.6063</ele><time>2026-05-09T21:21:32.000Z</time></trkpt>
        <trkpt lat="29.510545" lon="104.103953"><ele>409.42422</ele><time>2026-05-09T21:21:39.000Z</time></trkpt>
        <trkpt lat="29.510594" lon="104.103942"><ele>410.25665</ele><time>2026-05-09T21:21:44.000Z</time></trkpt>
        <trkpt lat="29.510642" lon="104.10396"><ele>411.05264</ele><time>2026-05-09T21:21:49.000Z</time></trkpt>
        <trkpt lat="29.510688" lon="104.103956"><ele>411.97647</ele><time>2026-05-09T21:21:55.000Z</time></trkpt>
        <trkpt lat="29.510738" lon="104.103955"><ele>412.74716</ele><time>2026-05-09T21:22:02.000Z</time></trkpt>
        <trkpt lat="29.510782" lon="104.10399"><ele>413.9123</ele><time>2026-05-09T21:22:10.000Z</time></trkpt>
        <trkpt lat="29.510812" lon="104.104041"><ele>415.23972</ele><time>2026-05-09T21:22:18.000Z</time></trkpt>
        <trkpt lat="29.510835" lon="104.104088"><ele>416.56183</ele><time>2026-05-09T21:22:25.000Z</time></trkpt>
        <trkpt lat="29.510884" lon="104.104116"><ele>417.42856</ele><time>2026-05-09T21:22:29.000Z</time></trkpt>
        <trkpt lat="29.510936" lon="104.104126"><ele>417.5034</ele><time>2026-05-09T21:22:35.000Z</time></trkpt>
        <trkpt lat="29.510978" lon="104.104148"><ele>417.56833</ele><time>2026-05-09T21:22:44.000Z</time></trkpt>
        <trkpt lat="29.511007" lon="104.104194"><ele>417.22147</ele><time>2026-05-09T21:22:52.000Z</time></trkpt>
        <trkpt lat="29.51103" lon="104.104241"><ele>418.23105</ele><time>2026-05-09T21:23:00.000Z</time></trkpt>
        <trkpt lat="29.511072" lon="104.104263"><ele>418.6195</ele><time>2026-05-09T21:23:06.000Z</time></trkpt>
        <trkpt lat="29.51111" lon="104.104299"><ele>418.76874</ele><time>2026-05-09T21:23:15.000Z</time></trkpt>
        <trkpt lat="29.511144" lon="104.10434"><ele>419.7323</ele><time>2026-05-09T21:23:23.000Z</time></trkpt>
        <trkpt lat="29.511182" lon="104.104371"><ele>420.49374</ele><time>2026-05-09T21:23:31.000Z</time></trkpt>
        <trkpt lat="29.511216" lon="104.104406"><ele>420.3922</ele><time>2026-05-09T21:23:37.000Z</time></trkpt>
        <trkpt lat="29.511248" lon="104.104444"><ele>421.08725</ele><time>2026-05-09T21:23:44.000Z</time></trkpt>
        <trkpt lat="29.511261" lon="104.104498"><ele>421.90396</ele><time>2026-05-09T21:23:51.000Z</time></trkpt>
        <trkpt lat="29.511274" lon="104.104548"><ele>422.5255</ele><time>2026-05-09T21:23:58.000Z</time></trkpt>
        <trkpt lat="29.511267" lon="104.104604"><ele>422.75012</ele><time>2026-05-09T21:24:19.000Z</time></trkpt>
        <trkpt lat="29.511303" lon="104.104656"><ele>422.67233</ele><time>2026-05-09T21:24:28.000Z</time></trkpt>
        <trkpt lat="29.51135" lon="104.104694"><ele>422.39322</ele><time>2026-05-09T21:24:35.000Z</time></trkpt>
        <trkpt lat="29.511398" lon="104.104706"><ele>421.41666</ele><time>2026-05-09T21:24:39.000Z</time></trkpt>
        <trkpt lat="29.511439" lon="104.104733"><ele>420.9006</ele><time>2026-05-09T21:24:45.000Z</time></trkpt>
        <trkpt lat="29.511482" lon="104.10476"><ele>420.92014</ele><time>2026-05-09T21:24:51.000Z</time></trkpt>
        <trkpt lat="29.511515" lon="104.104797"><ele>420.6953</ele><time>2026-05-09T21:24:57.000Z</time></trkpt>
        <trkpt lat="29.511542" lon="104.104848"><ele>421.1551</ele><time>2026-05-09T21:25:04.000Z</time></trkpt>
        <trkpt lat="29.511556" lon="104.104907"><ele>421.0726</ele><time>2026-05-09T21:25:13.000Z</time></trkpt>
        <trkpt lat="29.511544" lon="104.104957"><ele>421.94574</ele><time>2026-05-09T21:25:20.000Z</time></trkpt>
        <trkpt lat="29.511527" lon="104.105015"><ele>422.8732</ele><time>2026-05-09T21:25:29.000Z</time></trkpt>
        <trkpt lat="29.511513" lon="104.105066"><ele>424.6253</ele><time>2026-05-09T21:25:37.000Z</time></trkpt>
        <trkpt lat="29.511509" lon="104.105123"><ele>424.3972</ele><time>2026-05-09T21:25:45.000Z</time></trkpt>
        <trkpt lat="29.511514" lon="104.105182"><ele>426.2851</ele><time>2026-05-09T21:25:54.000Z</time></trkpt>
        <trkpt lat="29.511532" lon="104.105237"><ele>426.29047</ele><time>2026-05-09T21:26:01.000Z</time></trkpt>
        <trkpt lat="29.511544" lon="104.105289"><ele>428.01355</ele><time>2026-05-09T21:26:09.000Z</time></trkpt>
        <trkpt lat="29.511561" lon="104.105341"><ele>429.172</ele><time>2026-05-09T21:26:17.000Z</time></trkpt>
        <trkpt lat="29.511582" lon="104.105389"><ele>429.3997</ele><time>2026-05-09T21:26:24.000Z</time></trkpt>
        <trkpt lat="29.511614" lon="104.105427"><ele>429.8254</ele><time>2026-05-09T21:26:30.000Z</time></trkpt>
        <trkpt lat="29.511659" lon="104.10544"><ele>430.78214</ele><time>2026-05-09T21:26:38.000Z</time></trkpt>
        <trkpt lat="29.511703" lon="104.105425"><ele>431.3123</ele><time>2026-05-09T21:26:49.000Z</time></trkpt>
        <trkpt lat="29.511753" lon="104.105418"><ele>430.9455</ele><time>2026-05-09T21:27:00.000Z</time></trkpt>
        <trkpt lat="29.511804" lon="104.105425"><ele>431.35953</ele><time>2026-05-09T21:27:07.000Z</time></trkpt>
        <trkpt lat="29.511849" lon="104.105436"><ele>431.54816</ele><time>2026-05-09T21:27:17.000Z</time></trkpt>
        <trkpt lat="29.511899" lon="104.105433"><ele>431.58484</ele><time>2026-05-09T21:27:25.000Z</time></trkpt>
        <trkpt lat="29.511948" lon="104.105426"><ele>431.97165</ele><time>2026-05-09T21:27:33.000Z</time></trkpt>
        <trkpt lat="29.511993" lon="104.105413"><ele>431.5217</ele><time>2026-05-09T21:27:41.000Z</time></trkpt>
        <trkpt lat="29.512045" lon="104.105409"><ele>430.46362</ele><time>2026-05-09T21:27:49.000Z</time></trkpt>
        <trkpt lat="29.512094" lon="104.1054"><ele>430.35483</ele><time>2026-05-09T21:27:55.000Z</time></trkpt>
        <trkpt lat="29.512139" lon="104.105392"><ele>430.20096</ele><time>2026-05-09T21:28:01.000Z</time></trkpt>
        <trkpt lat="29.512184" lon="104.105381"><ele>430.61697</ele><time>2026-05-09T21:28:07.000Z</time></trkpt>
        <trkpt lat="29.512231" lon="104.105396"><ele>430.92374</ele><time>2026-05-09T21:28:14.000Z</time></trkpt>
        <trkpt lat="29.512253" lon="104.105449"><ele>430.09283</ele><time>2026-05-09T21:28:23.000Z</time></trkpt>
        <trkpt lat="29.512282" lon="104.105495"><ele>430.23257</ele><time>2026-05-09T21:28:29.000Z</time></trkpt>
        <trkpt lat="29.512309" lon="104.105537"><ele>429.25638</ele><time>2026-05-09T21:28:36.000Z</time></trkpt>
        <trkpt lat="29.512341" lon="104.105584"><ele>429.41797</ele><time>2026-05-09T21:28:41.000Z</time></trkpt>
        <trkpt lat="29.512368" lon="104.105628"><ele>428.7147</ele><time>2026-05-09T21:28:46.000Z</time></trkpt>
        <trkpt lat="29.512418" lon="104.105643"><ele>427.70242</ele><time>2026-05-09T21:28:57.000Z</time></trkpt>
        <trkpt lat="29.512453" lon="104.105682"><ele>426.53918</ele><time>2026-05-09T21:29:03.000Z</time></trkpt>
        <trkpt lat="29.512496" lon="104.105703"><ele>425.85858</ele><time>2026-05-09T21:29:35.000Z</time></trkpt>
        <trkpt lat="29.512548" lon="104.10571"><ele>424.1158</ele><time>2026-05-09T21:29:41.000Z</time></trkpt>
        <trkpt lat="29.512593" lon="104.105719"><ele>424.07437</ele><time>2026-05-09T21:29:45.000Z</time></trkpt>
        <trkpt lat="29.512637" lon="104.105735"><ele>422.95264</ele><time>2026-05-09T21:29:50.000Z</time></trkpt>
        <trkpt lat="29.512674" lon="104.105773"><ele>423.20508</ele><time>2026-05-09T21:29:55.000Z</time></trkpt>
        <trkpt lat="29.512713" lon="104.105805"><ele>423.21118</ele><time>2026-05-09T21:29:59.000Z</time></trkpt>
        <trkpt lat="29.512754" lon="104.105838"><ele>421.74982</ele><time>2026-05-09T21:30:05.000Z</time></trkpt>
        <trkpt lat="29.512793" lon="104.105869"><ele>421.68414</ele><time>2026-05-09T21:30:10.000Z</time></trkpt>
        <trkpt lat="29.512824" lon="104.105909"><ele>422.67</ele><time>2026-05-09T21:30:15.000Z</time></trkpt>
        <trkpt lat="29.512842" lon="104.105971"><ele>423.82626</ele><time>2026-05-09T21:30:21.000Z</time></trkpt>
        <trkpt lat="29.512856" lon="104.10602"><ele>424.36154</ele><time>2026-05-09T21:30:26.000Z</time></trkpt>
        <trkpt lat="29.51287" lon="104.106074"><ele>425.37057</ele><time>2026-05-09T21:30:31.000Z</time></trkpt>
        <trkpt lat="29.512865" lon="104.106132"><ele>426.00946</ele><time>2026-05-09T21:30:39.000Z</time></trkpt>
        <trkpt lat="29.51282" lon="104.106151"><ele>426.11517</ele><time>2026-05-09T21:30:45.000Z</time></trkpt>
        <trkpt lat="29.512776" lon="104.106177"><ele>425.78027</ele><time>2026-05-09T21:30:51.000Z</time></trkpt>
        <trkpt lat="29.512732" lon="104.10621"><ele>425.52838</ele><time>2026-05-09T21:30:57.000Z</time></trkpt>
        <trkpt lat="29.512689" lon="104.106239"><ele>425.49512</ele><time>2026-05-09T21:31:02.000Z</time></trkpt>
        <trkpt lat="29.512649" lon="104.106278"><ele>425.46112</ele><time>2026-05-09T21:31:11.000Z</time></trkpt>
        <trkpt lat="29.512607" lon="104.106311"><ele>423.90875</ele><time>2026-05-09T21:31:22.000Z</time></trkpt>
        <trkpt lat="29.512579" lon="104.106352"><ele>423.1847</ele><time>2026-05-09T21:31:33.000Z</time></trkpt>
        <trkpt lat="29.512553" lon="104.106404"><ele>422.91812</ele><time>2026-05-09T21:31:41.000Z</time></trkpt>
        <trkpt lat="29.512524" lon="104.106447"><ele>422.13858</ele><time>2026-05-09T21:31:47.000Z</time></trkpt>
        <trkpt lat="29.512492" lon="104.106488"><ele>421.48355</ele><time>2026-05-09T21:31:53.000Z</time></trkpt>
        <trkpt lat="29.512466" lon="104.106541"><ele>420.8834</ele><time>2026-05-09T21:32:01.000Z</time></trkpt>
        <trkpt lat="29.512453" lon="104.106593"><ele>420.54852</ele><time>2026-05-09T21:32:06.000Z</time></trkpt>
        <trkpt lat="29.512483" lon="104.106639"><ele>420.54465</ele><time>2026-05-09T21:32:12.000Z</time></trkpt>
        <trkpt lat="29.512523" lon="104.106666"><ele>421.82224</ele><time>2026-05-09T21:32:22.000Z</time></trkpt>
        <trkpt lat="29.512569" lon="104.106684"><ele>422.36725</ele><time>2026-05-09T21:32:27.000Z</time></trkpt>
        <trkpt lat="29.512614" lon="104.106682"><ele>423.2438</ele><time>2026-05-09T21:32:34.000Z</time></trkpt>
        <trkpt lat="29.512658" lon="104.106707"><ele>423.80286</ele><time>2026-05-09T21:32:39.000Z</time></trkpt>
        <trkpt lat="29.512708" lon="104.106735"><ele>424.1165</ele><time>2026-05-09T21:32:47.000Z</time></trkpt>
        <trkpt lat="29.512743" lon="104.106771"><ele>423.04922</ele><time>2026-05-09T21:32:52.000Z</time></trkpt>
        <trkpt lat="29.512775" lon="104.10681"><ele>421.9708</ele><time>2026-05-09T21:33:01.000Z</time></trkpt>
        <trkpt lat="29.512809" lon="104.106844"><ele>421.86996</ele><time>2026-05-09T21:35:32.000Z</time></trkpt>
        <trkpt lat="29.512763" lon="104.106827"><ele>422.12128</ele><time>2026-05-09T21:35:40.000Z</time></trkpt>
        <trkpt lat="29.512821" lon="104.10685"><ele>421.44574</ele><time>2026-05-09T21:40:03.000Z</time></trkpt>
        <trkpt lat="29.512781" lon="104.106822"><ele>422.23328</ele><time>2026-05-09T21:40:54.000Z</time></trkpt>
      </trkseg>
      <trkseg>
        <trkpt lat="29.512801" lon="104.106877"><ele>421.24255</ele><time>2026-05-09T21:45:11.000Z</time></trkpt>
        <trkpt lat="29.51276" lon="104.106852"><ele>420.4768</ele><time>2026-05-09T21:45:30.000Z</time></trkpt>
        <trkpt lat="29.512774" lon="104.10691"><ele>421.5123</ele><time>2026-05-09T21:45:51.000Z</time></trkpt>
        <trkpt lat="29.512743" lon="104.106964"><ele>420.35342</ele><time>2026-05-09T21:45:59.000Z</time></trkpt>
        <trkpt lat="29.512724" lon="104.107027"><ele>418.43295</ele><time>2026-05-09T21:46:05.000Z</time></trkpt>
        <trkpt lat="29.512711" lon="104.107077"><ele>418.77533</ele><time>2026-05-09T21:46:13.000Z</time></trkpt>
        <trkpt lat="29.512672" lon="104.107114"><ele>417.5338</ele><time>2026-05-09T21:46:24.000Z</time></trkpt>
        <trkpt lat="29.512666" lon="104.107168"><ele>417.0301</ele><time>2026-05-09T21:46:28.000Z</time></trkpt>
        <trkpt lat="29.512677" lon="104.107228"><ele>417.61655</ele><time>2026-05-09T21:46:34.000Z</time></trkpt>
        <trkpt lat="29.512688" lon="104.107282"><ele>417.88263</ele><time>2026-05-09T21:46:41.000Z</time></trkpt>
        <trkpt lat="29.512682" lon="104.107335"><ele>417.566</ele><time>2026-05-09T21:46:46.000Z</time></trkpt>
        <trkpt lat="29.512681" lon="104.107394"><ele>418.5665</ele><time>2026-05-09T21:46:52.000Z</time></trkpt>
        <trkpt lat="29.512704" lon="104.107443"><ele>419.2921</ele><time>2026-05-09T21:46:58.000Z</time></trkpt>
        <trkpt lat="29.512725" lon="104.107495"><ele>420.2489</ele><time>2026-05-09T21:47:03.000Z</time></trkpt>
        <trkpt lat="29.512751" lon="104.10754"><ele>420.00113</ele><time>2026-05-09T21:47:09.000Z</time></trkpt>
        <trkpt lat="29.512791" lon="104.107579"><ele>420.75784</ele><time>2026-05-09T21:47:15.000Z</time></trkpt>
        <trkpt lat="29.51284" lon="104.107608"><ele>421.1842</ele><time>2026-05-09T21:47:21.000Z</time></trkpt>
        <trkpt lat="29.512885" lon="104.107618"><ele>421.00046</ele><time>2026-05-09T21:47:25.000Z</time></trkpt>
        <trkpt lat="29.512936" lon="104.10763"><ele>420.45425</ele><time>2026-05-09T21:47:30.000Z</time></trkpt>
        <trkpt lat="29.512977" lon="104.10765"><ele>419.53156</ele><time>2026-05-09T21:47:35.000Z</time></trkpt>
        <trkpt lat="29.513016" lon="104.107688"><ele>419.25644</ele><time>2026-05-09T21:47:40.000Z</time></trkpt>
        <trkpt lat="29.51306" lon="104.107731"><ele>419.81424</ele><time>2026-05-09T21:47:45.000Z</time></trkpt>
        <trkpt lat="29.513086" lon="104.107777"><ele>419.64136</ele><time>2026-05-09T21:47:49.000Z</time></trkpt>
        <trkpt lat="29.513125" lon="104.107813"><ele>420.74457</ele><time>2026-05-09T21:47:54.000Z</time></trkpt>
        <trkpt lat="29.513169" lon="104.10785"><ele>420.6014</ele><time>2026-05-09T21:47:59.000Z</time></trkpt>
        <trkpt lat="29.513202" lon="104.107888"><ele>420.65536</ele><time>2026-05-09T21:48:04.000Z</time></trkpt>
        <trkpt lat="29.513229" lon="104.107932"><ele>421.22873</ele><time>2026-05-09T21:48:08.000Z</time></trkpt>
        <trkpt lat="29.513259" lon="104.107973"><ele>420.9879</ele><time>2026-05-09T21:48:12.000Z</time></trkpt>
        <trkpt lat="29.513283" lon="104.108023"><ele>421.5489</ele><time>2026-05-09T21:48:17.000Z</time></trkpt>
        <trkpt lat="29.513296" lon="104.108073"><ele>421.17767</ele><time>2026-05-09T21:48:21.000Z</time></trkpt>
        <trkpt lat="29.51332" lon="104.108128"><ele>420.82962</ele><time>2026-05-09T21:48:26.000Z</time></trkpt>
        <trkpt lat="29.51335" lon="104.10817"><ele>421.2079</ele><time>2026-05-09T21:48:31.000Z</time></trkpt>
        <trkpt lat="29.513366" lon="104.108227"><ele>421.05304</ele><time>2026-05-09T21:48:36.000Z</time></trkpt>
        <trkpt lat="29.513389" lon="104.108275"><ele>421.26263</ele><time>2026-05-09T21:48:39.000Z</time></trkpt>
        <trkpt lat="29.513419" lon="104.108329"><ele>421.45135</ele><time>2026-05-09T21:48:43.000Z</time></trkpt>
        <trkpt lat="29.513444" lon="104.108384"><ele>421.73138</ele><time>2026-05-09T21:48:57.000Z</time></trkpt>
        <trkpt lat="29.513469" lon="104.108443"><ele>422.14658</ele><time>2026-05-09T21:49:01.000Z</time></trkpt>
        <trkpt lat="29.513505" lon="104.108484"><ele>422.86493</ele><time>2026-05-09T21:49:06.000Z</time></trkpt>
        <trkpt lat="29.513533" lon="104.108526"><ele>423.24933</ele><time>2026-05-09T21:49:11.000Z</time></trkpt>
        <trkpt lat="29.513568" lon="104.108574"><ele>423.2794</ele><time>2026-05-09T21:49:15.000Z</time></trkpt>
        <trkpt lat="29.513603" lon="104.108621"><ele>423.78574</ele><time>2026-05-09T21:49:19.000Z</time></trkpt>
        <trkpt lat="29.513621" lon="104.10868"><ele>425.06155</ele><time>2026-05-09T21:49:23.000Z</time></trkpt>
        <trkpt lat="29.513605" lon="104.108738"><ele>425.9754</ele><time>2026-05-09T21:49:28.000Z</time></trkpt>
        <trkpt lat="29.513576" lon="104.108791"><ele>425.69162</ele><time>2026-05-09T21:49:33.000Z</time></trkpt>
        <trkpt lat="29.513553" lon="104.108856"><ele>426.4423</ele><time>2026-05-09T21:49:38.000Z</time></trkpt>
        <trkpt lat="29.513539" lon="104.108907"><ele>427.02063</ele><time>2026-05-09T21:49:42.000Z</time></trkpt>
        <trkpt lat="29.513516" lon="104.108953"><ele>428.10345</ele><time>2026-05-09T21:49:46.000Z</time></trkpt>
        <trkpt lat="29.513504" lon="104.109006"><ele>427.7184</ele><time>2026-05-09T21:49:50.000Z</time></trkpt>
        <trkpt lat="29.513472" lon="104.109055"><ele>427.7453</ele><time>2026-05-09T21:49:55.000Z</time></trkpt>
        <trkpt lat="29.513444" lon="104.109096"><ele>428.5825</ele><time>2026-05-09T21:49:59.000Z</time></trkpt>
        <trkpt lat="29.513422" lon="104.109147"><ele>428.2337</ele><time>2026-05-09T21:50:04.000Z</time></trkpt>
        <trkpt lat="29.51339" lon="104.109186"><ele>428.18552</ele><time>2026-05-09T21:50:09.000Z</time></trkpt>
        <trkpt lat="29.513352" lon="104.109227"><ele>427.12115</ele><time>2026-05-09T21:50:14.000Z</time></trkpt>
        <trkpt lat="29.513318" lon="104.10927"><ele>426.7583</ele><time>2026-05-09T21:50:18.000Z</time></trkpt>
        <trkpt lat="29.513285" lon="104.109319"><ele>426.34897</ele><time>2026-05-09T21:50:23.000Z</time></trkpt>
        <trkpt lat="29.513257" lon="104.109374"><ele>426.34067</ele><time>2026-05-09T21:50:28.000Z</time></trkpt>
        <trkpt lat="29.513232" lon="104.109427"><ele>426.93765</ele><time>2026-05-09T21:50:33.000Z</time></trkpt>
        <trkpt lat="29.513218" lon="104.109484"><ele>426.858</ele><time>2026-05-09T21:50:38.000Z</time></trkpt>
        <trkpt lat="29.513197" lon="104.109537"><ele>426.80386</ele><time>2026-05-09T21:50:43.000Z</time></trkpt>
        <trkpt lat="29.51317" lon="104.109593"><ele>427.09167</ele><time>2026-05-09T21:50:48.000Z</time></trkpt>
        <trkpt lat="29.513125" lon="104.109625"><ele>426.15427</ele><time>2026-05-09T21:50:55.000Z</time></trkpt>
      </trkseg>
  </trk>
</gpx>